<?xml version="1.0" encoding="UTF-8"?>
<gpx xmlns:xsi="http://www.w3.org/2001/XMLSchema-instance" xsi:schemaLocation="http://www.topografix.com/GPX/1/1 http://www.topografix.com/GPX/1/1/gpx.xsd" creator="StravaGPX" version="1.1" xmlns="http://www.topografix.com/GPX/1/1">
 <metadata>
  <time>2025-12-26T15:26:15Z</time>
 </metadata>
 <trk>
  <name>Marconi</name>
  <type>walking</type>
  <trkseg>
   <trkpt lat="53.4612150" lon="-10.0228150">
    <ele>5.3</ele>
    <time>2025-12-26T15:26:15Z</time>
   </trkpt>
   <trkpt lat="53.4612090" lon="-10.0229010">
    <ele>6.6</ele>
    <time>2025-12-26T15:26:26Z</time>
   </trkpt>
   <trkpt lat="53.4611490" lon="-10.0229700">
    <ele>6.9</ele>
    <time>2025-12-26T15:26:31Z</time>
   </trkpt>
   <trkpt lat="53.4611060" lon="-10.0231040">
    <ele>6.9</ele>
    <time>2025-12-26T15:26:37Z</time>
   </trkpt>
   <trkpt lat="53.4610570" lon="-10.0231070">
    <ele>6.9</ele>
    <time>2025-12-26T15:26:42Z</time>
   </trkpt>
   <trkpt lat="53.4610620" lon="-10.0230310">
    <ele>6.8</ele>
    <time>2025-12-26T15:26:48Z</time>
   </trkpt>
   <trkpt lat="53.4610070" lon="-10.0230020">
    <ele>6.4</ele>
    <time>2025-12-26T15:26:54Z</time>
   </trkpt>
   <trkpt lat="53.4609710" lon="-10.0230560">
    <ele>7.2</ele>
    <time>2025-12-26T15:27:49Z</time>
   </trkpt>
   <trkpt lat="53.4609200" lon="-10.0230910">
    <ele>6.9</ele>
    <time>2025-12-26T15:27:57Z</time>
   </trkpt>
   <trkpt lat="53.4608210" lon="-10.0230600">
    <ele>7.3</ele>
    <time>2025-12-26T15:28:02Z</time>
   </trkpt>
   <trkpt lat="53.4607490" lon="-10.0230220">
    <ele>7.7</ele>
    <time>2025-12-26T15:28:07Z</time>
   </trkpt>
   <trkpt lat="53.4606980" lon="-10.0230150">
    <ele>8.1</ele>
    <time>2025-12-26T15:28:13Z</time>
   </trkpt>
   <trkpt lat="53.4606890" lon="-10.0229260">
    <ele>8.0</ele>
    <time>2025-12-26T15:28:45Z</time>
   </trkpt>
   <trkpt lat="53.4607350" lon="-10.0228380">
    <ele>8.6</ele>
    <time>2025-12-26T15:28:50Z</time>
   </trkpt>
   <trkpt lat="53.4607450" lon="-10.0227550">
    <ele>9.7</ele>
    <time>2025-12-26T15:29:40Z</time>
   </trkpt>
   <trkpt lat="53.4607580" lon="-10.0225930">
    <ele>9.6</ele>
    <time>2025-12-26T15:29:45Z</time>
   </trkpt>
   <trkpt lat="53.4607590" lon="-10.0224580">
    <ele>10.0</ele>
    <time>2025-12-26T15:29:50Z</time>
   </trkpt>
   <trkpt lat="53.4607540" lon="-10.0223370">
    <ele>10.1</ele>
    <time>2025-12-26T15:29:56Z</time>
   </trkpt>
   <trkpt lat="53.4607590" lon="-10.0222170">
    <ele>10.1</ele>
    <time>2025-12-26T15:30:01Z</time>
   </trkpt>
   <trkpt lat="53.4607090" lon="-10.0221470">
    <ele>10.2</ele>
    <time>2025-12-26T15:30:07Z</time>
   </trkpt>
   <trkpt lat="53.4606300" lon="-10.0221450">
    <ele>10.4</ele>
    <time>2025-12-26T15:30:12Z</time>
   </trkpt>
   <trkpt lat="53.4605600" lon="-10.0220660">
    <ele>10.5</ele>
    <time>2025-12-26T15:30:17Z</time>
   </trkpt>
   <trkpt lat="53.4604890" lon="-10.0220040">
    <ele>10.5</ele>
    <time>2025-12-26T15:30:23Z</time>
   </trkpt>
   <trkpt lat="53.4604150" lon="-10.0219490">
    <ele>10.4</ele>
    <time>2025-12-26T15:30:28Z</time>
   </trkpt>
   <trkpt lat="53.4603450" lon="-10.0218970">
    <ele>10.4</ele>
    <time>2025-12-26T15:30:33Z</time>
   </trkpt>
   <trkpt lat="53.4602830" lon="-10.0218470">
    <ele>10.4</ele>
    <time>2025-12-26T15:30:39Z</time>
   </trkpt>
   <trkpt lat="53.4602140" lon="-10.0218000">
    <ele>10.4</ele>
    <time>2025-12-26T15:30:44Z</time>
   </trkpt>
   <trkpt lat="53.4601530" lon="-10.0217410">
    <ele>10.3</ele>
    <time>2025-12-26T15:30:49Z</time>
   </trkpt>
   <trkpt lat="53.4600810" lon="-10.0216950">
    <ele>10.2</ele>
    <time>2025-12-26T15:30:55Z</time>
   </trkpt>
   <trkpt lat="53.4600100" lon="-10.0216400">
    <ele>10.3</ele>
    <time>2025-12-26T15:31:00Z</time>
   </trkpt>
   <trkpt lat="53.4599400" lon="-10.0215970">
    <ele>10.2</ele>
    <time>2025-12-26T15:31:06Z</time>
   </trkpt>
   <trkpt lat="53.4598740" lon="-10.0215450">
    <ele>10.3</ele>
    <time>2025-12-26T15:31:11Z</time>
   </trkpt>
   <trkpt lat="53.4598100" lon="-10.0214770">
    <ele>10.3</ele>
    <time>2025-12-26T15:31:16Z</time>
   </trkpt>
   <trkpt lat="53.4597310" lon="-10.0214350">
    <ele>10.3</ele>
    <time>2025-12-26T15:31:21Z</time>
   </trkpt>
   <trkpt lat="53.4596620" lon="-10.0213730">
    <ele>10.4</ele>
    <time>2025-12-26T15:31:27Z</time>
   </trkpt>
   <trkpt lat="53.4595990" lon="-10.0213130">
    <ele>10.8</ele>
    <time>2025-12-26T15:31:32Z</time>
   </trkpt>
   <trkpt lat="53.4595330" lon="-10.0212760">
    <ele>11.2</ele>
    <time>2025-12-26T15:31:37Z</time>
   </trkpt>
   <trkpt lat="53.4594670" lon="-10.0212240">
    <ele>11.4</ele>
    <time>2025-12-26T15:31:43Z</time>
   </trkpt>
   <trkpt lat="53.4594040" lon="-10.0211830">
    <ele>11.3</ele>
    <time>2025-12-26T15:31:48Z</time>
   </trkpt>
   <trkpt lat="53.4593400" lon="-10.0211270">
    <ele>11.7</ele>
    <time>2025-12-26T15:31:53Z</time>
   </trkpt>
   <trkpt lat="53.4592670" lon="-10.0210850">
    <ele>11.7</ele>
    <time>2025-12-26T15:31:59Z</time>
   </trkpt>
   <trkpt lat="53.4591930" lon="-10.0210370">
    <ele>11.4</ele>
    <time>2025-12-26T15:32:04Z</time>
   </trkpt>
   <trkpt lat="53.4591200" lon="-10.0209930">
    <ele>11.3</ele>
    <time>2025-12-26T15:32:10Z</time>
   </trkpt>
   <trkpt lat="53.4590480" lon="-10.0209450">
    <ele>11.2</ele>
    <time>2025-12-26T15:32:15Z</time>
   </trkpt>
   <trkpt lat="53.4589750" lon="-10.0209170">
    <ele>11.2</ele>
    <time>2025-12-26T15:32:20Z</time>
   </trkpt>
   <trkpt lat="53.4589030" lon="-10.0208720">
    <ele>11.3</ele>
    <time>2025-12-26T15:32:26Z</time>
   </trkpt>
   <trkpt lat="53.4588400" lon="-10.0208400">
    <ele>11.4</ele>
    <time>2025-12-26T15:32:31Z</time>
   </trkpt>
   <trkpt lat="53.4587910" lon="-10.0208240">
    <ele>11.4</ele>
    <time>2025-12-26T15:32:37Z</time>
   </trkpt>
   <trkpt lat="53.4587270" lon="-10.0207890">
    <ele>11.5</ele>
    <time>2025-12-26T15:32:42Z</time>
   </trkpt>
   <trkpt lat="53.4586780" lon="-10.0206950">
    <ele>12.0</ele>
    <time>2025-12-26T15:32:48Z</time>
   </trkpt>
   <trkpt lat="53.4586290" lon="-10.0207470">
    <ele>14.8</ele>
    <time>2025-12-26T15:34:15Z</time>
   </trkpt>
   <trkpt lat="53.4585360" lon="-10.0207480">
    <ele>14.9</ele>
    <time>2025-12-26T15:34:20Z</time>
   </trkpt>
   <trkpt lat="53.4584610" lon="-10.0207540">
    <ele>14.9</ele>
    <time>2025-12-26T15:34:26Z</time>
   </trkpt>
   <trkpt lat="53.4583750" lon="-10.0207200">
    <ele>14.9</ele>
    <time>2025-12-26T15:34:31Z</time>
   </trkpt>
   <trkpt lat="53.4583070" lon="-10.0206900">
    <ele>14.9</ele>
    <time>2025-12-26T15:34:36Z</time>
   </trkpt>
   <trkpt lat="53.4582760" lon="-10.0206260">
    <ele>14.9</ele>
    <time>2025-12-26T15:34:42Z</time>
   </trkpt>
   <trkpt lat="53.4582330" lon="-10.0206820">
    <ele>14.9</ele>
    <time>2025-12-26T15:35:04Z</time>
   </trkpt>
   <trkpt lat="53.4581370" lon="-10.0207010">
    <ele>14.9</ele>
    <time>2025-12-26T15:35:09Z</time>
   </trkpt>
   <trkpt lat="53.4580600" lon="-10.0206940">
    <ele>15.0</ele>
    <time>2025-12-26T15:35:14Z</time>
   </trkpt>
   <trkpt lat="53.4579850" lon="-10.0207030">
    <ele>15.1</ele>
    <time>2025-12-26T15:35:20Z</time>
   </trkpt>
   <trkpt lat="53.4579370" lon="-10.0207210">
    <ele>15.1</ele>
    <time>2025-12-26T15:35:25Z</time>
   </trkpt>
   <trkpt lat="53.4578740" lon="-10.0207190">
    <ele>15.1</ele>
    <time>2025-12-26T15:35:30Z</time>
   </trkpt>
   <trkpt lat="53.4578020" lon="-10.0207170">
    <ele>15.4</ele>
    <time>2025-12-26T15:35:35Z</time>
   </trkpt>
   <trkpt lat="53.4577360" lon="-10.0207330">
    <ele>15.4</ele>
    <time>2025-12-26T15:35:41Z</time>
   </trkpt>
   <trkpt lat="53.4576700" lon="-10.0207410">
    <ele>15.3</ele>
    <time>2025-12-26T15:35:46Z</time>
   </trkpt>
   <trkpt lat="53.4576150" lon="-10.0207360">
    <ele>15.8</ele>
    <time>2025-12-26T15:35:51Z</time>
   </trkpt>
   <trkpt lat="53.4575380" lon="-10.0207380">
    <ele>16.1</ele>
    <time>2025-12-26T15:35:57Z</time>
   </trkpt>
   <trkpt lat="53.4574720" lon="-10.0207690">
    <ele>16.5</ele>
    <time>2025-12-26T15:36:02Z</time>
   </trkpt>
   <trkpt lat="53.4574170" lon="-10.0207890">
    <ele>17.2</ele>
    <time>2025-12-26T15:36:08Z</time>
   </trkpt>
   <trkpt lat="53.4573530" lon="-10.0208060">
    <ele>17.6</ele>
    <time>2025-12-26T15:36:13Z</time>
   </trkpt>
   <trkpt lat="53.4572840" lon="-10.0208290">
    <ele>17.6</ele>
    <time>2025-12-26T15:36:18Z</time>
   </trkpt>
   <trkpt lat="53.4572190" lon="-10.0208460">
    <ele>17.7</ele>
    <time>2025-12-26T15:36:23Z</time>
   </trkpt>
   <trkpt lat="53.4571550" lon="-10.0208680">
    <ele>18.1</ele>
    <time>2025-12-26T15:36:29Z</time>
   </trkpt>
   <trkpt lat="53.4570980" lon="-10.0208830">
    <ele>18.4</ele>
    <time>2025-12-26T15:36:34Z</time>
   </trkpt>
   <trkpt lat="53.4570400" lon="-10.0208970">
    <ele>18.5</ele>
    <time>2025-12-26T15:36:40Z</time>
   </trkpt>
   <trkpt lat="53.4569780" lon="-10.0209050">
    <ele>18.7</ele>
    <time>2025-12-26T15:36:45Z</time>
   </trkpt>
   <trkpt lat="53.4569040" lon="-10.0209160">
    <ele>19.0</ele>
    <time>2025-12-26T15:36:50Z</time>
   </trkpt>
   <trkpt lat="53.4568360" lon="-10.0209480">
    <ele>19.2</ele>
    <time>2025-12-26T15:36:55Z</time>
   </trkpt>
   <trkpt lat="53.4567670" lon="-10.0209620">
    <ele>19.2</ele>
    <time>2025-12-26T15:37:00Z</time>
   </trkpt>
   <trkpt lat="53.4567030" lon="-10.0209700">
    <ele>19.1</ele>
    <time>2025-12-26T15:37:05Z</time>
   </trkpt>
   <trkpt lat="53.4566390" lon="-10.0209800">
    <ele>19.2</ele>
    <time>2025-12-26T15:37:11Z</time>
   </trkpt>
   <trkpt lat="53.4565730" lon="-10.0209700">
    <ele>19.3</ele>
    <time>2025-12-26T15:37:16Z</time>
   </trkpt>
   <trkpt lat="53.4565070" lon="-10.0209700">
    <ele>19.9</ele>
    <time>2025-12-26T15:37:21Z</time>
   </trkpt>
   <trkpt lat="53.4564430" lon="-10.0209710">
    <ele>20.2</ele>
    <time>2025-12-26T15:37:26Z</time>
   </trkpt>
   <trkpt lat="53.4563880" lon="-10.0209640">
    <ele>20.4</ele>
    <time>2025-12-26T15:37:32Z</time>
   </trkpt>
   <trkpt lat="53.4563210" lon="-10.0209440">
    <ele>20.4</ele>
    <time>2025-12-26T15:37:37Z</time>
   </trkpt>
   <trkpt lat="53.4562580" lon="-10.0209090">
    <ele>20.3</ele>
    <time>2025-12-26T15:37:42Z</time>
   </trkpt>
   <trkpt lat="53.4562030" lon="-10.0208770">
    <ele>20.2</ele>
    <time>2025-12-26T15:37:47Z</time>
   </trkpt>
   <trkpt lat="53.4561450" lon="-10.0208330">
    <ele>20.1</ele>
    <time>2025-12-26T15:37:53Z</time>
   </trkpt>
   <trkpt lat="53.4560890" lon="-10.0207920">
    <ele>20.1</ele>
    <time>2025-12-26T15:37:58Z</time>
   </trkpt>
   <trkpt lat="53.4560380" lon="-10.0207690">
    <ele>20.1</ele>
    <time>2025-12-26T15:38:11Z</time>
   </trkpt>
   <trkpt lat="53.4559580" lon="-10.0207120">
    <ele>20.0</ele>
    <time>2025-12-26T15:38:16Z</time>
   </trkpt>
   <trkpt lat="53.4558940" lon="-10.0206710">
    <ele>19.7</ele>
    <time>2025-12-26T15:38:22Z</time>
   </trkpt>
   <trkpt lat="53.4558260" lon="-10.0206350">
    <ele>19.4</ele>
    <time>2025-12-26T15:38:27Z</time>
   </trkpt>
   <trkpt lat="53.4557760" lon="-10.0206140">
    <ele>19.3</ele>
    <time>2025-12-26T15:38:32Z</time>
   </trkpt>
   <trkpt lat="53.4557130" lon="-10.0205640">
    <ele>19.2</ele>
    <time>2025-12-26T15:38:37Z</time>
   </trkpt>
   <trkpt lat="53.4556520" lon="-10.0205140">
    <ele>19.0</ele>
    <time>2025-12-26T15:38:42Z</time>
   </trkpt>
   <trkpt lat="53.4555920" lon="-10.0204920">
    <ele>18.8</ele>
    <time>2025-12-26T15:38:47Z</time>
   </trkpt>
   <trkpt lat="53.4555290" lon="-10.0204520">
    <ele>18.6</ele>
    <time>2025-12-26T15:38:52Z</time>
   </trkpt>
   <trkpt lat="53.4554680" lon="-10.0204100">
    <ele>18.5</ele>
    <time>2025-12-26T15:38:57Z</time>
   </trkpt>
   <trkpt lat="53.4554000" lon="-10.0203660">
    <ele>18.8</ele>
    <time>2025-12-26T15:39:03Z</time>
   </trkpt>
   <trkpt lat="53.4553410" lon="-10.0203450">
    <ele>19.2</ele>
    <time>2025-12-26T15:39:08Z</time>
   </trkpt>
   <trkpt lat="53.4552920" lon="-10.0202780">
    <ele>19.5</ele>
    <time>2025-12-26T15:39:13Z</time>
   </trkpt>
   <trkpt lat="53.4552400" lon="-10.0202400">
    <ele>19.7</ele>
    <time>2025-12-26T15:39:18Z</time>
   </trkpt>
   <trkpt lat="53.4551800" lon="-10.0202120">
    <ele>19.7</ele>
    <time>2025-12-26T15:39:23Z</time>
   </trkpt>
   <trkpt lat="53.4551120" lon="-10.0201740">
    <ele>19.7</ele>
    <time>2025-12-26T15:39:28Z</time>
   </trkpt>
   <trkpt lat="53.4550580" lon="-10.0201320">
    <ele>19.4</ele>
    <time>2025-12-26T15:39:34Z</time>
   </trkpt>
   <trkpt lat="53.4549960" lon="-10.0200900">
    <ele>19.1</ele>
    <time>2025-12-26T15:39:39Z</time>
   </trkpt>
   <trkpt lat="53.4549320" lon="-10.0200500">
    <ele>18.9</ele>
    <time>2025-12-26T15:39:44Z</time>
   </trkpt>
   <trkpt lat="53.4548700" lon="-10.0200190">
    <ele>18.8</ele>
    <time>2025-12-26T15:39:49Z</time>
   </trkpt>
   <trkpt lat="53.4548090" lon="-10.0199950">
    <ele>18.9</ele>
    <time>2025-12-26T15:39:54Z</time>
   </trkpt>
   <trkpt lat="53.4547460" lon="-10.0199440">
    <ele>18.9</ele>
    <time>2025-12-26T15:39:59Z</time>
   </trkpt>
   <trkpt lat="53.4546920" lon="-10.0199140">
    <ele>19.1</ele>
    <time>2025-12-26T15:40:04Z</time>
   </trkpt>
   <trkpt lat="53.4546270" lon="-10.0198850">
    <ele>19.2</ele>
    <time>2025-12-26T15:40:09Z</time>
   </trkpt>
   <trkpt lat="53.4545640" lon="-10.0198400">
    <ele>19.3</ele>
    <time>2025-12-26T15:40:14Z</time>
   </trkpt>
   <trkpt lat="53.4545110" lon="-10.0197580">
    <ele>20.2</ele>
    <time>2025-12-26T15:40:19Z</time>
   </trkpt>
   <trkpt lat="53.4544590" lon="-10.0197110">
    <ele>20.5</ele>
    <time>2025-12-26T15:40:24Z</time>
   </trkpt>
   <trkpt lat="53.4543920" lon="-10.0196830">
    <ele>20.5</ele>
    <time>2025-12-26T15:40:29Z</time>
   </trkpt>
   <trkpt lat="53.4543320" lon="-10.0196600">
    <ele>20.6</ele>
    <time>2025-12-26T15:40:35Z</time>
   </trkpt>
   <trkpt lat="53.4542600" lon="-10.0196680">
    <ele>20.8</ele>
    <time>2025-12-26T15:40:40Z</time>
   </trkpt>
   <trkpt lat="53.4541980" lon="-10.0196860">
    <ele>20.9</ele>
    <time>2025-12-26T15:40:45Z</time>
   </trkpt>
   <trkpt lat="53.4541470" lon="-10.0197420">
    <ele>21.1</ele>
    <time>2025-12-26T15:40:50Z</time>
   </trkpt>
   <trkpt lat="53.4540910" lon="-10.0197950">
    <ele>21.4</ele>
    <time>2025-12-26T15:40:55Z</time>
   </trkpt>
   <trkpt lat="53.4540370" lon="-10.0198840">
    <ele>21.7</ele>
    <time>2025-12-26T15:41:00Z</time>
   </trkpt>
   <trkpt lat="53.4539920" lon="-10.0199490">
    <ele>22.0</ele>
    <time>2025-12-26T15:41:06Z</time>
   </trkpt>
   <trkpt lat="53.4539460" lon="-10.0200210">
    <ele>22.1</ele>
    <time>2025-12-26T15:41:11Z</time>
   </trkpt>
   <trkpt lat="53.4539090" lon="-10.0200970">
    <ele>22.2</ele>
    <time>2025-12-26T15:41:16Z</time>
   </trkpt>
   <trkpt lat="53.4538670" lon="-10.0201550">
    <ele>22.3</ele>
    <time>2025-12-26T15:41:21Z</time>
   </trkpt>
   <trkpt lat="53.4539200" lon="-10.0201460">
    <ele>22.3</ele>
    <time>2025-12-26T15:41:26Z</time>
   </trkpt>
   <trkpt lat="53.4538710" lon="-10.0201830">
    <ele>22.3</ele>
    <time>2025-12-26T15:41:34Z</time>
   </trkpt>
   <trkpt lat="53.4537920" lon="-10.0202910">
    <ele>22.4</ele>
    <time>2025-12-26T15:41:39Z</time>
   </trkpt>
   <trkpt lat="53.4537420" lon="-10.0203890">
    <ele>22.5</ele>
    <time>2025-12-26T15:41:45Z</time>
   </trkpt>
   <trkpt lat="53.4537030" lon="-10.0204940">
    <ele>22.5</ele>
    <time>2025-12-26T15:41:50Z</time>
   </trkpt>
   <trkpt lat="53.4536440" lon="-10.0205900">
    <ele>22.4</ele>
    <time>2025-12-26T15:41:55Z</time>
   </trkpt>
   <trkpt lat="53.4535860" lon="-10.0206900">
    <ele>22.1</ele>
    <time>2025-12-26T15:42:01Z</time>
   </trkpt>
   <trkpt lat="53.4535320" lon="-10.0207860">
    <ele>21.9</ele>
    <time>2025-12-26T15:42:06Z</time>
   </trkpt>
   <trkpt lat="53.4534840" lon="-10.0208950">
    <ele>21.6</ele>
    <time>2025-12-26T15:42:12Z</time>
   </trkpt>
   <trkpt lat="53.4534310" lon="-10.0209950">
    <ele>21.5</ele>
    <time>2025-12-26T15:42:17Z</time>
   </trkpt>
   <trkpt lat="53.4533750" lon="-10.0210800">
    <ele>21.3</ele>
    <time>2025-12-26T15:42:22Z</time>
   </trkpt>
   <trkpt lat="53.4533210" lon="-10.0211780">
    <ele>21.1</ele>
    <time>2025-12-26T15:42:28Z</time>
   </trkpt>
   <trkpt lat="53.4532610" lon="-10.0212760">
    <ele>21.1</ele>
    <time>2025-12-26T15:42:33Z</time>
   </trkpt>
   <trkpt lat="53.4532050" lon="-10.0213530">
    <ele>21.2</ele>
    <time>2025-12-26T15:42:39Z</time>
   </trkpt>
   <trkpt lat="53.4531520" lon="-10.0214480">
    <ele>21.3</ele>
    <time>2025-12-26T15:42:44Z</time>
   </trkpt>
   <trkpt lat="53.4530920" lon="-10.0215240">
    <ele>21.3</ele>
    <time>2025-12-26T15:42:49Z</time>
   </trkpt>
   <trkpt lat="53.4530230" lon="-10.0215970">
    <ele>21.4</ele>
    <time>2025-12-26T15:42:55Z</time>
   </trkpt>
   <trkpt lat="53.4529620" lon="-10.0216710">
    <ele>21.5</ele>
    <time>2025-12-26T15:43:00Z</time>
   </trkpt>
   <trkpt lat="53.4529110" lon="-10.0217780">
    <ele>21.4</ele>
    <time>2025-12-26T15:43:06Z</time>
   </trkpt>
   <trkpt lat="53.4528550" lon="-10.0218570">
    <ele>21.3</ele>
    <time>2025-12-26T15:43:11Z</time>
   </trkpt>
   <trkpt lat="53.4528000" lon="-10.0219340">
    <ele>21.3</ele>
    <time>2025-12-26T15:43:16Z</time>
   </trkpt>
   <trkpt lat="53.4527520" lon="-10.0220000">
    <ele>21.5</ele>
    <time>2025-12-26T15:43:21Z</time>
   </trkpt>
   <trkpt lat="53.4527080" lon="-10.0220620">
    <ele>21.5</ele>
    <time>2025-12-26T15:43:26Z</time>
   </trkpt>
   <trkpt lat="53.4526500" lon="-10.0221330">
    <ele>21.5</ele>
    <time>2025-12-26T15:43:32Z</time>
   </trkpt>
   <trkpt lat="53.4525900" lon="-10.0221770">
    <ele>21.3</ele>
    <time>2025-12-26T15:43:37Z</time>
   </trkpt>
   <trkpt lat="53.4525380" lon="-10.0222410">
    <ele>21.0</ele>
    <time>2025-12-26T15:43:42Z</time>
   </trkpt>
   <trkpt lat="53.4524850" lon="-10.0223080">
    <ele>21.1</ele>
    <time>2025-12-26T15:43:47Z</time>
   </trkpt>
   <trkpt lat="53.4524270" lon="-10.0223630">
    <ele>21.1</ele>
    <time>2025-12-26T15:43:52Z</time>
   </trkpt>
   <trkpt lat="53.4523580" lon="-10.0224170">
    <ele>21.0</ele>
    <time>2025-12-26T15:43:57Z</time>
   </trkpt>
   <trkpt lat="53.4523060" lon="-10.0224580">
    <ele>20.9</ele>
    <time>2025-12-26T15:44:02Z</time>
   </trkpt>
   <trkpt lat="53.4522570" lon="-10.0225090">
    <ele>21.1</ele>
    <time>2025-12-26T15:44:07Z</time>
   </trkpt>
   <trkpt lat="53.4521990" lon="-10.0225600">
    <ele>21.1</ele>
    <time>2025-12-26T15:44:12Z</time>
   </trkpt>
   <trkpt lat="53.4521410" lon="-10.0226220">
    <ele>21.3</ele>
    <time>2025-12-26T15:44:18Z</time>
   </trkpt>
   <trkpt lat="53.4520930" lon="-10.0226590">
    <ele>21.5</ele>
    <time>2025-12-26T15:44:23Z</time>
   </trkpt>
   <trkpt lat="53.4520310" lon="-10.0227100">
    <ele>21.8</ele>
    <time>2025-12-26T15:44:28Z</time>
   </trkpt>
   <trkpt lat="53.4519840" lon="-10.0227570">
    <ele>22.1</ele>
    <time>2025-12-26T15:44:34Z</time>
   </trkpt>
   <trkpt lat="53.4519360" lon="-10.0228200">
    <ele>22.2</ele>
    <time>2025-12-26T15:44:39Z</time>
   </trkpt>
   <trkpt lat="53.4518830" lon="-10.0228820">
    <ele>22.6</ele>
    <time>2025-12-26T15:44:45Z</time>
   </trkpt>
   <trkpt lat="53.4518310" lon="-10.0229390">
    <ele>22.9</ele>
    <time>2025-12-26T15:44:50Z</time>
   </trkpt>
   <trkpt lat="53.4517840" lon="-10.0230230">
    <ele>22.9</ele>
    <time>2025-12-26T15:44:55Z</time>
   </trkpt>
   <trkpt lat="53.4517490" lon="-10.0231160">
    <ele>22.7</ele>
    <time>2025-12-26T15:45:00Z</time>
   </trkpt>
   <trkpt lat="53.4516990" lon="-10.0231980">
    <ele>22.5</ele>
    <time>2025-12-26T15:45:05Z</time>
   </trkpt>
   <trkpt lat="53.4516640" lon="-10.0233050">
    <ele>22.0</ele>
    <time>2025-12-26T15:45:11Z</time>
   </trkpt>
   <trkpt lat="53.4516380" lon="-10.0234120">
    <ele>21.5</ele>
    <time>2025-12-26T15:45:16Z</time>
   </trkpt>
   <trkpt lat="53.4516040" lon="-10.0234900">
    <ele>21.1</ele>
    <time>2025-12-26T15:45:21Z</time>
   </trkpt>
   <trkpt lat="53.4515830" lon="-10.0235810">
    <ele>20.8</ele>
    <time>2025-12-26T15:45:26Z</time>
   </trkpt>
   <trkpt lat="53.4515500" lon="-10.0236690">
    <ele>20.7</ele>
    <time>2025-12-26T15:45:31Z</time>
   </trkpt>
   <trkpt lat="53.4515040" lon="-10.0237600">
    <ele>20.5</ele>
    <time>2025-12-26T15:45:36Z</time>
   </trkpt>
   <trkpt lat="53.4514610" lon="-10.0238260">
    <ele>20.1</ele>
    <time>2025-12-26T15:45:41Z</time>
   </trkpt>
   <trkpt lat="53.4514150" lon="-10.0239000">
    <ele>19.9</ele>
    <time>2025-12-26T15:45:46Z</time>
   </trkpt>
   <trkpt lat="53.4513630" lon="-10.0239650">
    <ele>19.8</ele>
    <time>2025-12-26T15:45:52Z</time>
   </trkpt>
   <trkpt lat="53.4513130" lon="-10.0240370">
    <ele>19.8</ele>
    <time>2025-12-26T15:45:57Z</time>
   </trkpt>
   <trkpt lat="53.4512580" lon="-10.0240830">
    <ele>19.7</ele>
    <time>2025-12-26T15:46:02Z</time>
   </trkpt>
   <trkpt lat="53.4512000" lon="-10.0241300">
    <ele>19.7</ele>
    <time>2025-12-26T15:46:07Z</time>
   </trkpt>
   <trkpt lat="53.4511370" lon="-10.0241690">
    <ele>19.6</ele>
    <time>2025-12-26T15:46:12Z</time>
   </trkpt>
   <trkpt lat="53.4511410" lon="-10.0242440">
    <ele>19.9</ele>
    <time>2025-12-26T15:46:22Z</time>
   </trkpt>
   <trkpt lat="53.4510950" lon="-10.0241950">
    <ele>19.9</ele>
    <time>2025-12-26T15:46:44Z</time>
   </trkpt>
   <trkpt lat="53.4510110" lon="-10.0242210">
    <ele>20.1</ele>
    <time>2025-12-26T15:46:50Z</time>
   </trkpt>
   <trkpt lat="53.4509310" lon="-10.0242240">
    <ele>20.2</ele>
    <time>2025-12-26T15:46:55Z</time>
   </trkpt>
   <trkpt lat="53.4508610" lon="-10.0242600">
    <ele>20.3</ele>
    <time>2025-12-26T15:47:00Z</time>
   </trkpt>
   <trkpt lat="53.4507850" lon="-10.0242790">
    <ele>20.2</ele>
    <time>2025-12-26T15:47:06Z</time>
   </trkpt>
   <trkpt lat="53.4507120" lon="-10.0242940">
    <ele>20.2</ele>
    <time>2025-12-26T15:47:11Z</time>
   </trkpt>
   <trkpt lat="53.4506660" lon="-10.0242560">
    <ele>20.3</ele>
    <time>2025-12-26T15:47:16Z</time>
   </trkpt>
   <trkpt lat="53.4506180" lon="-10.0242480">
    <ele>20.2</ele>
    <time>2025-12-26T15:47:45Z</time>
   </trkpt>
   <trkpt lat="53.4505720" lon="-10.0242620">
    <ele>20.4</ele>
    <time>2025-12-26T15:48:35Z</time>
   </trkpt>
   <trkpt lat="53.4505230" lon="-10.0242790">
    <ele>20.7</ele>
    <time>2025-12-26T15:48:45Z</time>
   </trkpt>
   <trkpt lat="53.4504350" lon="-10.0243160">
    <ele>21.1</ele>
    <time>2025-12-26T15:48:51Z</time>
   </trkpt>
   <trkpt lat="53.4503490" lon="-10.0242990">
    <ele>21.4</ele>
    <time>2025-12-26T15:48:56Z</time>
   </trkpt>
   <trkpt lat="53.4502730" lon="-10.0242830">
    <ele>21.3</ele>
    <time>2025-12-26T15:49:02Z</time>
   </trkpt>
   <trkpt lat="53.4501980" lon="-10.0242960">
    <ele>21.5</ele>
    <time>2025-12-26T15:49:07Z</time>
   </trkpt>
   <trkpt lat="53.4501220" lon="-10.0242890">
    <ele>22.2</ele>
    <time>2025-12-26T15:49:13Z</time>
   </trkpt>
   <trkpt lat="53.4500560" lon="-10.0242640">
    <ele>23.3</ele>
    <time>2025-12-26T15:49:18Z</time>
   </trkpt>
   <trkpt lat="53.4499790" lon="-10.0242240">
    <ele>24.5</ele>
    <time>2025-12-26T15:49:23Z</time>
   </trkpt>
   <trkpt lat="53.4498920" lon="-10.0242130">
    <ele>23.9</ele>
    <time>2025-12-26T15:49:29Z</time>
   </trkpt>
   <trkpt lat="53.4498190" lon="-10.0241920">
    <ele>23.2</ele>
    <time>2025-12-26T15:49:34Z</time>
   </trkpt>
   <trkpt lat="53.4497490" lon="-10.0241650">
    <ele>22.9</ele>
    <time>2025-12-26T15:49:39Z</time>
   </trkpt>
   <trkpt lat="53.4496700" lon="-10.0241560">
    <ele>22.9</ele>
    <time>2025-12-26T15:49:45Z</time>
   </trkpt>
   <trkpt lat="53.4495870" lon="-10.0241610">
    <ele>23.2</ele>
    <time>2025-12-26T15:49:50Z</time>
   </trkpt>
   <trkpt lat="53.4495130" lon="-10.0241500">
    <ele>23.6</ele>
    <time>2025-12-26T15:49:56Z</time>
   </trkpt>
   <trkpt lat="53.4494330" lon="-10.0241240">
    <ele>23.6</ele>
    <time>2025-12-26T15:50:01Z</time>
   </trkpt>
   <trkpt lat="53.4493640" lon="-10.0241130">
    <ele>23.7</ele>
    <time>2025-12-26T15:50:06Z</time>
   </trkpt>
   <trkpt lat="53.4492830" lon="-10.0240940">
    <ele>23.7</ele>
    <time>2025-12-26T15:50:12Z</time>
   </trkpt>
   <trkpt lat="53.4492000" lon="-10.0240620">
    <ele>23.7</ele>
    <time>2025-12-26T15:50:17Z</time>
   </trkpt>
   <trkpt lat="53.4491160" lon="-10.0240360">
    <ele>23.9</ele>
    <time>2025-12-26T15:50:23Z</time>
   </trkpt>
   <trkpt lat="53.4490410" lon="-10.0240110">
    <ele>23.6</ele>
    <time>2025-12-26T15:50:28Z</time>
   </trkpt>
   <trkpt lat="53.4489640" lon="-10.0239890">
    <ele>23.7</ele>
    <time>2025-12-26T15:50:34Z</time>
   </trkpt>
   <trkpt lat="53.4488850" lon="-10.0239680">
    <ele>23.6</ele>
    <time>2025-12-26T15:50:39Z</time>
   </trkpt>
   <trkpt lat="53.4488170" lon="-10.0239590">
    <ele>23.7</ele>
    <time>2025-12-26T15:50:44Z</time>
   </trkpt>
   <trkpt lat="53.4487390" lon="-10.0239310">
    <ele>24.0</ele>
    <time>2025-12-26T15:50:50Z</time>
   </trkpt>
   <trkpt lat="53.4486710" lon="-10.0239120">
    <ele>24.0</ele>
    <time>2025-12-26T15:50:55Z</time>
   </trkpt>
   <trkpt lat="53.4485910" lon="-10.0238830">
    <ele>23.9</ele>
    <time>2025-12-26T15:51:01Z</time>
   </trkpt>
   <trkpt lat="53.4485100" lon="-10.0238530">
    <ele>24.0</ele>
    <time>2025-12-26T15:51:06Z</time>
   </trkpt>
   <trkpt lat="53.4484390" lon="-10.0238190">
    <ele>23.9</ele>
    <time>2025-12-26T15:51:12Z</time>
   </trkpt>
   <trkpt lat="53.4483650" lon="-10.0237730">
    <ele>24.0</ele>
    <time>2025-12-26T15:51:17Z</time>
   </trkpt>
   <trkpt lat="53.4482930" lon="-10.0237400">
    <ele>24.2</ele>
    <time>2025-12-26T15:51:22Z</time>
   </trkpt>
   <trkpt lat="53.4482250" lon="-10.0236870">
    <ele>23.9</ele>
    <time>2025-12-26T15:51:28Z</time>
   </trkpt>
   <trkpt lat="53.4481520" lon="-10.0236290">
    <ele>23.9</ele>
    <time>2025-12-26T15:51:33Z</time>
   </trkpt>
   <trkpt lat="53.4480860" lon="-10.0235630">
    <ele>23.9</ele>
    <time>2025-12-26T15:51:39Z</time>
   </trkpt>
   <trkpt lat="53.4480230" lon="-10.0235040">
    <ele>24.0</ele>
    <time>2025-12-26T15:51:44Z</time>
   </trkpt>
   <trkpt lat="53.4479530" lon="-10.0234550">
    <ele>24.1</ele>
    <time>2025-12-26T15:51:50Z</time>
   </trkpt>
   <trkpt lat="53.4478770" lon="-10.0234050">
    <ele>23.9</ele>
    <time>2025-12-26T15:51:55Z</time>
   </trkpt>
   <trkpt lat="53.4478150" lon="-10.0233240">
    <ele>23.9</ele>
    <time>2025-12-26T15:52:01Z</time>
   </trkpt>
   <trkpt lat="53.4477470" lon="-10.0232670">
    <ele>23.9</ele>
    <time>2025-12-26T15:52:06Z</time>
   </trkpt>
   <trkpt lat="53.4476960" lon="-10.0232250">
    <ele>23.8</ele>
    <time>2025-12-26T15:52:11Z</time>
   </trkpt>
   <trkpt lat="53.4476480" lon="-10.0232100">
    <ele>23.8</ele>
    <time>2025-12-26T15:52:49Z</time>
   </trkpt>
   <trkpt lat="53.4475610" lon="-10.0231290">
    <ele>23.7</ele>
    <time>2025-12-26T15:52:54Z</time>
   </trkpt>
   <trkpt lat="53.4474920" lon="-10.0230750">
    <ele>23.5</ele>
    <time>2025-12-26T15:52:59Z</time>
   </trkpt>
   <trkpt lat="53.4474240" lon="-10.0230210">
    <ele>23.4</ele>
    <time>2025-12-26T15:53:05Z</time>
   </trkpt>
   <trkpt lat="53.4473570" lon="-10.0229690">
    <ele>23.3</ele>
    <time>2025-12-26T15:53:10Z</time>
   </trkpt>
   <trkpt lat="53.4472830" lon="-10.0229120">
    <ele>23.3</ele>
    <time>2025-12-26T15:53:16Z</time>
   </trkpt>
   <trkpt lat="53.4472110" lon="-10.0228610">
    <ele>23.0</ele>
    <time>2025-12-26T15:53:21Z</time>
   </trkpt>
   <trkpt lat="53.4471400" lon="-10.0228060">
    <ele>22.7</ele>
    <time>2025-12-26T15:53:27Z</time>
   </trkpt>
   <trkpt lat="53.4470790" lon="-10.0228020">
    <ele>22.5</ele>
    <time>2025-12-26T15:53:32Z</time>
   </trkpt>
   <trkpt lat="53.4470250" lon="-10.0227250">
    <ele>22.4</ele>
    <time>2025-12-26T15:53:37Z</time>
   </trkpt>
   <trkpt lat="53.4469810" lon="-10.0226820">
    <ele>22.6</ele>
    <time>2025-12-26T15:53:42Z</time>
   </trkpt>
   <trkpt lat="53.4469220" lon="-10.0226020">
    <ele>22.6</ele>
    <time>2025-12-26T15:53:48Z</time>
   </trkpt>
   <trkpt lat="53.4468440" lon="-10.0225680">
    <ele>22.6</ele>
    <time>2025-12-26T15:53:53Z</time>
   </trkpt>
   <trkpt lat="53.4467570" lon="-10.0225420">
    <ele>23.0</ele>
    <time>2025-12-26T15:53:59Z</time>
   </trkpt>
   <trkpt lat="53.4466790" lon="-10.0225470">
    <ele>23.3</ele>
    <time>2025-12-26T15:54:04Z</time>
   </trkpt>
   <trkpt lat="53.4466190" lon="-10.0224910">
    <ele>23.5</ele>
    <time>2025-12-26T15:54:10Z</time>
   </trkpt>
   <trkpt lat="53.4466110" lon="-10.0223570">
    <ele>23.7</ele>
    <time>2025-12-26T15:54:15Z</time>
   </trkpt>
   <trkpt lat="53.4466040" lon="-10.0224350">
    <ele>16.3</ele>
    <time>2025-12-26T15:55:38Z</time>
   </trkpt>
   <trkpt lat="53.4466100" lon="-10.0225270">
    <ele>19.3</ele>
    <time>2025-12-26T15:55:43Z</time>
   </trkpt>
   <trkpt lat="53.4466090" lon="-10.0226370">
    <ele>21.6</ele>
    <time>2025-12-26T15:55:48Z</time>
   </trkpt>
   <trkpt lat="53.4466200" lon="-10.0225410">
    <ele>23.3</ele>
    <time>2025-12-26T15:57:03Z</time>
   </trkpt>
   <trkpt lat="53.4466570" lon="-10.0224820">
    <ele>23.1</ele>
    <time>2025-12-26T15:57:19Z</time>
   </trkpt>
   <trkpt lat="53.4466790" lon="-10.0224070">
    <ele>23.7</ele>
    <time>2025-12-26T15:57:30Z</time>
   </trkpt>
   <trkpt lat="53.4466020" lon="-10.0222020">
    <ele>23.9</ele>
    <time>2025-12-26T15:57:35Z</time>
   </trkpt>
   <trkpt lat="53.4466070" lon="-10.0220760">
    <ele>24.1</ele>
    <time>2025-12-26T15:57:41Z</time>
   </trkpt>
   <trkpt lat="53.4465460" lon="-10.0220170">
    <ele>24.5</ele>
    <time>2025-12-26T15:57:46Z</time>
   </trkpt>
   <trkpt lat="53.4464700" lon="-10.0220850">
    <ele>24.5</ele>
    <time>2025-12-26T15:57:51Z</time>
   </trkpt>
   <trkpt lat="53.4463990" lon="-10.0221110">
    <ele>24.7</ele>
    <time>2025-12-26T15:57:57Z</time>
   </trkpt>
   <trkpt lat="53.4463270" lon="-10.0221300">
    <ele>24.8</ele>
    <time>2025-12-26T15:58:02Z</time>
   </trkpt>
   <trkpt lat="53.4462370" lon="-10.0221300">
    <ele>25.0</ele>
    <time>2025-12-26T15:58:07Z</time>
   </trkpt>
   <trkpt lat="53.4461680" lon="-10.0221460">
    <ele>25.1</ele>
    <time>2025-12-26T15:58:12Z</time>
   </trkpt>
   <trkpt lat="53.4460960" lon="-10.0221650">
    <ele>25.3</ele>
    <time>2025-12-26T15:58:18Z</time>
   </trkpt>
   <trkpt lat="53.4460200" lon="-10.0221690">
    <ele>25.2</ele>
    <time>2025-12-26T15:58:23Z</time>
   </trkpt>
   <trkpt lat="53.4459590" lon="-10.0221000">
    <ele>25.1</ele>
    <time>2025-12-26T15:58:28Z</time>
   </trkpt>
   <trkpt lat="53.4459270" lon="-10.0219920">
    <ele>25.2</ele>
    <time>2025-12-26T15:58:34Z</time>
   </trkpt>
   <trkpt lat="53.4459050" lon="-10.0218900">
    <ele>25.6</ele>
    <time>2025-12-26T15:58:39Z</time>
   </trkpt>
   <trkpt lat="53.4458620" lon="-10.0218080">
    <ele>26.1</ele>
    <time>2025-12-26T15:58:44Z</time>
   </trkpt>
   <trkpt lat="53.4458620" lon="-10.0218850">
    <ele>26.4</ele>
    <time>2025-12-26T15:59:13Z</time>
   </trkpt>
   <trkpt lat="53.4458150" lon="-10.0218890">
    <ele>26.5</ele>
    <time>2025-12-26T15:59:48Z</time>
   </trkpt>
   <trkpt lat="53.4457670" lon="-10.0219320">
    <ele>26.7</ele>
    <time>2025-12-26T15:59:53Z</time>
   </trkpt>
   <trkpt lat="53.4458130" lon="-10.0219300">
    <ele>27.7</ele>
    <time>2025-12-26T16:00:11Z</time>
   </trkpt>
   <trkpt lat="53.4458590" lon="-10.0219050">
    <ele>27.8</ele>
    <time>2025-12-26T16:00:19Z</time>
   </trkpt>
   <trkpt lat="53.4459020" lon="-10.0219620">
    <ele>27.5</ele>
    <time>2025-12-26T16:00:24Z</time>
   </trkpt>
   <trkpt lat="53.4459460" lon="-10.0220910">
    <ele>26.8</ele>
    <time>2025-12-26T16:00:30Z</time>
   </trkpt>
   <trkpt lat="53.4459930" lon="-10.0221720">
    <ele>26.5</ele>
    <time>2025-12-26T16:00:35Z</time>
   </trkpt>
   <trkpt lat="53.4460540" lon="-10.0221800">
    <ele>26.3</ele>
    <time>2025-12-26T16:00:40Z</time>
   </trkpt>
   <trkpt lat="53.4460830" lon="-10.0222400">
    <ele>25.8</ele>
    <time>2025-12-26T16:00:46Z</time>
   </trkpt>
   <trkpt lat="53.4460760" lon="-10.0223750">
    <ele>25.3</ele>
    <time>2025-12-26T16:00:51Z</time>
   </trkpt>
   <trkpt lat="53.4460870" lon="-10.0224940">
    <ele>24.9</ele>
    <time>2025-12-26T16:00:56Z</time>
   </trkpt>
   <trkpt lat="53.4461030" lon="-10.0225720">
    <ele>24.5</ele>
    <time>2025-12-26T16:01:01Z</time>
   </trkpt>
   <trkpt lat="53.4461040" lon="-10.0224960">
    <ele>23.7</ele>
    <time>2025-12-26T16:01:23Z</time>
   </trkpt>
   <trkpt lat="53.4461540" lon="-10.0224960">
    <ele>23.8</ele>
    <time>2025-12-26T16:01:34Z</time>
   </trkpt>
   <trkpt lat="53.4462340" lon="-10.0225090">
    <ele>24.0</ele>
    <time>2025-12-26T16:01:39Z</time>
   </trkpt>
   <trkpt lat="53.4463070" lon="-10.0224810">
    <ele>24.2</ele>
    <time>2025-12-26T16:01:44Z</time>
   </trkpt>
   <trkpt lat="53.4463760" lon="-10.0224840">
    <ele>24.1</ele>
    <time>2025-12-26T16:01:50Z</time>
   </trkpt>
   <trkpt lat="53.4464470" lon="-10.0224460">
    <ele>24.3</ele>
    <time>2025-12-26T16:01:55Z</time>
   </trkpt>
   <trkpt lat="53.4464170" lon="-10.0225060">
    <ele>24.6</ele>
    <time>2025-12-26T16:02:03Z</time>
   </trkpt>
   <trkpt lat="53.4464040" lon="-10.0225960">
    <ele>24.5</ele>
    <time>2025-12-26T16:02:09Z</time>
   </trkpt>
   <trkpt lat="53.4464700" lon="-10.0225870">
    <ele>24.3</ele>
    <time>2025-12-26T16:02:14Z</time>
   </trkpt>
   <trkpt lat="53.4464660" lon="-10.0227080">
    <ele>23.9</ele>
    <time>2025-12-26T16:02:19Z</time>
   </trkpt>
   <trkpt lat="53.4464080" lon="-10.0228040">
    <ele>23.2</ele>
    <time>2025-12-26T16:02:25Z</time>
   </trkpt>
   <trkpt lat="53.4463690" lon="-10.0229240">
    <ele>22.9</ele>
    <time>2025-12-26T16:02:30Z</time>
   </trkpt>
   <trkpt lat="53.4463340" lon="-10.0230410">
    <ele>22.7</ele>
    <time>2025-12-26T16:02:35Z</time>
   </trkpt>
   <trkpt lat="53.4463020" lon="-10.0231530">
    <ele>22.5</ele>
    <time>2025-12-26T16:02:41Z</time>
   </trkpt>
   <trkpt lat="53.4462660" lon="-10.0232730">
    <ele>22.3</ele>
    <time>2025-12-26T16:02:46Z</time>
   </trkpt>
   <trkpt lat="53.4462300" lon="-10.0233920">
    <ele>22.1</ele>
    <time>2025-12-26T16:02:52Z</time>
   </trkpt>
   <trkpt lat="53.4461990" lon="-10.0235060">
    <ele>22.1</ele>
    <time>2025-12-26T16:02:57Z</time>
   </trkpt>
   <trkpt lat="53.4461570" lon="-10.0236230">
    <ele>22.3</ele>
    <time>2025-12-26T16:03:03Z</time>
   </trkpt>
   <trkpt lat="53.4461320" lon="-10.0237440">
    <ele>22.4</ele>
    <time>2025-12-26T16:03:08Z</time>
   </trkpt>
   <trkpt lat="53.4460960" lon="-10.0238630">
    <ele>22.3</ele>
    <time>2025-12-26T16:03:13Z</time>
   </trkpt>
   <trkpt lat="53.4460610" lon="-10.0239800">
    <ele>22.2</ele>
    <time>2025-12-26T16:03:19Z</time>
   </trkpt>
   <trkpt lat="53.4460160" lon="-10.0240660">
    <ele>22.3</ele>
    <time>2025-12-26T16:03:24Z</time>
   </trkpt>
   <trkpt lat="53.4459680" lon="-10.0241510">
    <ele>22.6</ele>
    <time>2025-12-26T16:03:29Z</time>
   </trkpt>
   <trkpt lat="53.4459090" lon="-10.0242340">
    <ele>22.9</ele>
    <time>2025-12-26T16:03:35Z</time>
   </trkpt>
   <trkpt lat="53.4458580" lon="-10.0242280">
    <ele>22.9</ele>
    <time>2025-12-26T16:03:40Z</time>
   </trkpt>
   <trkpt lat="53.4458240" lon="-10.0241480">
    <ele>22.8</ele>
    <time>2025-12-26T16:03:45Z</time>
   </trkpt>
   <trkpt lat="53.4457700" lon="-10.0240560">
    <ele>22.7</ele>
    <time>2025-12-26T16:03:51Z</time>
   </trkpt>
   <trkpt lat="53.4457250" lon="-10.0240380">
    <ele>23.5</ele>
    <time>2025-12-26T16:04:19Z</time>
   </trkpt>
   <trkpt lat="53.4457650" lon="-10.0240790">
    <ele>23.6</ele>
    <time>2025-12-26T16:04:30Z</time>
   </trkpt>
   <trkpt lat="53.4458260" lon="-10.0241440">
    <ele>23.6</ele>
    <time>2025-12-26T16:04:35Z</time>
   </trkpt>
   <trkpt lat="53.4458660" lon="-10.0242660">
    <ele>23.4</ele>
    <time>2025-12-26T16:04:40Z</time>
   </trkpt>
   <trkpt lat="53.4458800" lon="-10.0243480">
    <ele>23.2</ele>
    <time>2025-12-26T16:04:46Z</time>
   </trkpt>
   <trkpt lat="53.4458330" lon="-10.0244500">
    <ele>23.0</ele>
    <time>2025-12-26T16:04:51Z</time>
   </trkpt>
   <trkpt lat="53.4458010" lon="-10.0245550">
    <ele>23.2</ele>
    <time>2025-12-26T16:04:56Z</time>
   </trkpt>
   <trkpt lat="53.4457880" lon="-10.0246430">
    <ele>23.3</ele>
    <time>2025-12-26T16:05:01Z</time>
   </trkpt>
   <trkpt lat="53.4458370" lon="-10.0246560">
    <ele>23.5</ele>
    <time>2025-12-26T16:05:06Z</time>
   </trkpt>
   <trkpt lat="53.4458120" lon="-10.0247220">
    <ele>23.4</ele>
    <time>2025-12-26T16:06:06Z</time>
   </trkpt>
   <trkpt lat="53.4458720" lon="-10.0247730">
    <ele>23.5</ele>
    <time>2025-12-26T16:06:11Z</time>
   </trkpt>
   <trkpt lat="53.4459250" lon="-10.0247910">
    <ele>24.5</ele>
    <time>2025-12-26T16:06:30Z</time>
   </trkpt>
   <trkpt lat="53.4460280" lon="-10.0248380">
    <ele>24.9</ele>
    <time>2025-12-26T16:06:36Z</time>
   </trkpt>
   <trkpt lat="53.4460870" lon="-10.0249010">
    <ele>24.7</ele>
    <time>2025-12-26T16:06:41Z</time>
   </trkpt>
   <trkpt lat="53.4461290" lon="-10.0249820">
    <ele>24.7</ele>
    <time>2025-12-26T16:06:46Z</time>
   </trkpt>
   <trkpt lat="53.4461880" lon="-10.0250360">
    <ele>24.7</ele>
    <time>2025-12-26T16:06:51Z</time>
   </trkpt>
   <trkpt lat="53.4461580" lon="-10.0251090">
    <ele>24.9</ele>
    <time>2025-12-26T16:07:46Z</time>
   </trkpt>
   <trkpt lat="53.4460940" lon="-10.0251660">
    <ele>24.9</ele>
    <time>2025-12-26T16:07:52Z</time>
   </trkpt>
   <trkpt lat="53.4460450" lon="-10.0251160">
    <ele>24.8</ele>
    <time>2025-12-26T16:07:57Z</time>
   </trkpt>
   <trkpt lat="53.4459960" lon="-10.0250430">
    <ele>24.6</ele>
    <time>2025-12-26T16:08:02Z</time>
   </trkpt>
   <trkpt lat="53.4459530" lon="-10.0249520">
    <ele>24.5</ele>
    <time>2025-12-26T16:08:07Z</time>
   </trkpt>
   <trkpt lat="53.4458970" lon="-10.0248540">
    <ele>24.2</ele>
    <time>2025-12-26T16:08:13Z</time>
   </trkpt>
   <trkpt lat="53.4458660" lon="-10.0247390">
    <ele>24.3</ele>
    <time>2025-12-26T16:08:18Z</time>
   </trkpt>
   <trkpt lat="53.4458320" lon="-10.0246680">
    <ele>24.4</ele>
    <time>2025-12-26T16:08:23Z</time>
   </trkpt>
   <trkpt lat="53.4458020" lon="-10.0247420">
    <ele>23.4</ele>
    <time>2025-12-26T16:10:01Z</time>
   </trkpt>
   <trkpt lat="53.4457480" lon="-10.0249320">
    <ele>23.3</ele>
    <time>2025-12-26T16:10:07Z</time>
   </trkpt>
   <trkpt lat="53.4457160" lon="-10.0250660">
    <ele>23.2</ele>
    <time>2025-12-26T16:10:12Z</time>
   </trkpt>
   <trkpt lat="53.4457040" lon="-10.0251890">
    <ele>23.0</ele>
    <time>2025-12-26T16:10:17Z</time>
   </trkpt>
   <trkpt lat="53.4456840" lon="-10.0253180">
    <ele>22.8</ele>
    <time>2025-12-26T16:10:22Z</time>
   </trkpt>
   <trkpt lat="53.4456550" lon="-10.0254340">
    <ele>22.9</ele>
    <time>2025-12-26T16:10:28Z</time>
   </trkpt>
   <trkpt lat="53.4456240" lon="-10.0255530">
    <ele>22.9</ele>
    <time>2025-12-26T16:10:33Z</time>
   </trkpt>
   <trkpt lat="53.4455970" lon="-10.0256870">
    <ele>22.6</ele>
    <time>2025-12-26T16:10:38Z</time>
   </trkpt>
   <trkpt lat="53.4455710" lon="-10.0258120">
    <ele>22.4</ele>
    <time>2025-12-26T16:10:44Z</time>
   </trkpt>
   <trkpt lat="53.4455450" lon="-10.0259400">
    <ele>22.1</ele>
    <time>2025-12-26T16:10:49Z</time>
   </trkpt>
   <trkpt lat="53.4455350" lon="-10.0260780">
    <ele>22.0</ele>
    <time>2025-12-26T16:10:54Z</time>
   </trkpt>
   <trkpt lat="53.4455500" lon="-10.0261950">
    <ele>22.0</ele>
    <time>2025-12-26T16:10:59Z</time>
   </trkpt>
   <trkpt lat="53.4455570" lon="-10.0263280">
    <ele>22.0</ele>
    <time>2025-12-26T16:11:05Z</time>
   </trkpt>
   <trkpt lat="53.4455700" lon="-10.0264560">
    <ele>22.1</ele>
    <time>2025-12-26T16:11:10Z</time>
   </trkpt>
   <trkpt lat="53.4455240" lon="-10.0264860">
    <ele>22.0</ele>
    <time>2025-12-26T16:11:17Z</time>
   </trkpt>
   <trkpt lat="53.4454450" lon="-10.0264460">
    <ele>21.8</ele>
    <time>2025-12-26T16:11:22Z</time>
   </trkpt>
   <trkpt lat="53.4453600" lon="-10.0264360">
    <ele>21.6</ele>
    <time>2025-12-26T16:11:28Z</time>
   </trkpt>
   <trkpt lat="53.4453030" lon="-10.0263990">
    <ele>21.6</ele>
    <time>2025-12-26T16:11:33Z</time>
   </trkpt>
   <trkpt lat="53.4453250" lon="-10.0263260">
    <ele>22.1</ele>
    <time>2025-12-26T16:11:57Z</time>
   </trkpt>
   <trkpt lat="53.4453540" lon="-10.0261480">
    <ele>21.9</ele>
    <time>2025-12-26T16:12:02Z</time>
   </trkpt>
   <trkpt lat="53.4453060" lon="-10.0260350">
    <ele>21.8</ele>
    <time>2025-12-26T16:12:08Z</time>
   </trkpt>
   <trkpt lat="53.4452500" lon="-10.0260460">
    <ele>21.9</ele>
    <time>2025-12-26T16:12:13Z</time>
   </trkpt>
   <trkpt lat="53.4452140" lon="-10.0259770">
    <ele>22.2</ele>
    <time>2025-12-26T16:12:22Z</time>
   </trkpt>
   <trkpt lat="53.4451440" lon="-10.0258730">
    <ele>22.2</ele>
    <time>2025-12-26T16:12:27Z</time>
   </trkpt>
   <trkpt lat="53.4451120" lon="-10.0258200">
    <ele>21.3</ele>
    <time>2025-12-26T16:12:46Z</time>
   </trkpt>
   <trkpt lat="53.4450280" lon="-10.0256950">
    <ele>21.6</ele>
    <time>2025-12-26T16:12:52Z</time>
   </trkpt>
   <trkpt lat="53.4449880" lon="-10.0256250">
    <ele>21.9</ele>
    <time>2025-12-26T16:12:57Z</time>
   </trkpt>
   <trkpt lat="53.4450220" lon="-10.0256830">
    <ele>22.6</ele>
    <time>2025-12-26T16:13:05Z</time>
   </trkpt>
   <trkpt lat="53.4451000" lon="-10.0258030">
    <ele>22.8</ele>
    <time>2025-12-26T16:13:10Z</time>
   </trkpt>
   <trkpt lat="53.4451550" lon="-10.0259370">
    <ele>22.3</ele>
    <time>2025-12-26T16:13:16Z</time>
   </trkpt>
   <trkpt lat="53.4452110" lon="-10.0260200">
    <ele>22.2</ele>
    <time>2025-12-26T16:13:21Z</time>
   </trkpt>
   <trkpt lat="53.4452930" lon="-10.0260320">
    <ele>22.4</ele>
    <time>2025-12-26T16:13:26Z</time>
   </trkpt>
   <trkpt lat="53.4453730" lon="-10.0260800">
    <ele>22.4</ele>
    <time>2025-12-26T16:13:31Z</time>
   </trkpt>
   <trkpt lat="53.4453430" lon="-10.0262170">
    <ele>22.3</ele>
    <time>2025-12-26T16:13:37Z</time>
   </trkpt>
   <trkpt lat="53.4453120" lon="-10.0263450">
    <ele>22.1</ele>
    <time>2025-12-26T16:13:42Z</time>
   </trkpt>
   <trkpt lat="53.4453440" lon="-10.0264570">
    <ele>21.9</ele>
    <time>2025-12-26T16:13:47Z</time>
   </trkpt>
   <trkpt lat="53.4454410" lon="-10.0264530">
    <ele>21.9</ele>
    <time>2025-12-26T16:13:53Z</time>
   </trkpt>
   <trkpt lat="53.4455150" lon="-10.0264780">
    <ele>21.8</ele>
    <time>2025-12-26T16:13:58Z</time>
   </trkpt>
   <trkpt lat="53.4456050" lon="-10.0264910">
    <ele>21.8</ele>
    <time>2025-12-26T16:14:03Z</time>
   </trkpt>
   <trkpt lat="53.4456710" lon="-10.0265180">
    <ele>21.9</ele>
    <time>2025-12-26T16:14:09Z</time>
   </trkpt>
   <trkpt lat="53.4456900" lon="-10.0266060">
    <ele>21.8</ele>
    <time>2025-12-26T16:14:32Z</time>
   </trkpt>
   <trkpt lat="53.4457370" lon="-10.0267170">
    <ele>21.7</ele>
    <time>2025-12-26T16:14:37Z</time>
   </trkpt>
   <trkpt lat="53.4457720" lon="-10.0267950">
    <ele>21.5</ele>
    <time>2025-12-26T16:14:43Z</time>
   </trkpt>
   <trkpt lat="53.4458150" lon="-10.0268800">
    <ele>21.5</ele>
    <time>2025-12-26T16:14:48Z</time>
   </trkpt>
   <trkpt lat="53.4458610" lon="-10.0269650">
    <ele>21.6</ele>
    <time>2025-12-26T16:14:53Z</time>
   </trkpt>
   <trkpt lat="53.4459090" lon="-10.0270240">
    <ele>21.5</ele>
    <time>2025-12-26T16:14:58Z</time>
   </trkpt>
   <trkpt lat="53.4459630" lon="-10.0270920">
    <ele>21.4</ele>
    <time>2025-12-26T16:15:04Z</time>
   </trkpt>
   <trkpt lat="53.4460030" lon="-10.0271780">
    <ele>21.5</ele>
    <time>2025-12-26T16:15:09Z</time>
   </trkpt>
   <trkpt lat="53.4460460" lon="-10.0272450">
    <ele>21.6</ele>
    <time>2025-12-26T16:15:14Z</time>
   </trkpt>
   <trkpt lat="53.4460970" lon="-10.0273070">
    <ele>21.8</ele>
    <time>2025-12-26T16:15:20Z</time>
   </trkpt>
   <trkpt lat="53.4461430" lon="-10.0273840">
    <ele>22.0</ele>
    <time>2025-12-26T16:15:25Z</time>
   </trkpt>
   <trkpt lat="53.4461920" lon="-10.0274520">
    <ele>22.0</ele>
    <time>2025-12-26T16:15:30Z</time>
   </trkpt>
   <trkpt lat="53.4462370" lon="-10.0275400">
    <ele>22.0</ele>
    <time>2025-12-26T16:15:36Z</time>
   </trkpt>
   <trkpt lat="53.4462960" lon="-10.0276080">
    <ele>22.0</ele>
    <time>2025-12-26T16:15:41Z</time>
   </trkpt>
   <trkpt lat="53.4463470" lon="-10.0276620">
    <ele>22.0</ele>
    <time>2025-12-26T16:15:46Z</time>
   </trkpt>
   <trkpt lat="53.4464010" lon="-10.0277210">
    <ele>22.1</ele>
    <time>2025-12-26T16:15:51Z</time>
   </trkpt>
   <trkpt lat="53.4464470" lon="-10.0277820">
    <ele>22.2</ele>
    <time>2025-12-26T16:15:57Z</time>
   </trkpt>
   <trkpt lat="53.4465050" lon="-10.0278550">
    <ele>22.2</ele>
    <time>2025-12-26T16:16:02Z</time>
   </trkpt>
   <trkpt lat="53.4465590" lon="-10.0279080">
    <ele>22.1</ele>
    <time>2025-12-26T16:16:07Z</time>
   </trkpt>
   <trkpt lat="53.4466080" lon="-10.0279660">
    <ele>22.1</ele>
    <time>2025-12-26T16:16:13Z</time>
   </trkpt>
   <trkpt lat="53.4466660" lon="-10.0280330">
    <ele>22.1</ele>
    <time>2025-12-26T16:16:18Z</time>
   </trkpt>
   <trkpt lat="53.4467210" lon="-10.0280960">
    <ele>22.2</ele>
    <time>2025-12-26T16:16:23Z</time>
   </trkpt>
   <trkpt lat="53.4467810" lon="-10.0281460">
    <ele>22.1</ele>
    <time>2025-12-26T16:16:28Z</time>
   </trkpt>
   <trkpt lat="53.4468400" lon="-10.0282070">
    <ele>21.9</ele>
    <time>2025-12-26T16:16:33Z</time>
   </trkpt>
   <trkpt lat="53.4468950" lon="-10.0282680">
    <ele>21.8</ele>
    <time>2025-12-26T16:16:38Z</time>
   </trkpt>
   <trkpt lat="53.4469510" lon="-10.0283400">
    <ele>21.7</ele>
    <time>2025-12-26T16:16:43Z</time>
   </trkpt>
   <trkpt lat="53.4470120" lon="-10.0284030">
    <ele>21.6</ele>
    <time>2025-12-26T16:16:49Z</time>
   </trkpt>
   <trkpt lat="53.4470630" lon="-10.0284690">
    <ele>21.7</ele>
    <time>2025-12-26T16:16:55Z</time>
   </trkpt>
   <trkpt lat="53.4471080" lon="-10.0285200">
    <ele>21.7</ele>
    <time>2025-12-26T16:17:00Z</time>
   </trkpt>
   <trkpt lat="53.4471250" lon="-10.0286070">
    <ele>21.8</ele>
    <time>2025-12-26T16:17:05Z</time>
   </trkpt>
   <trkpt lat="53.4471010" lon="-10.0287280">
    <ele>21.9</ele>
    <time>2025-12-26T16:17:11Z</time>
   </trkpt>
   <trkpt lat="53.4470810" lon="-10.0288410">
    <ele>22.1</ele>
    <time>2025-12-26T16:17:16Z</time>
   </trkpt>
   <trkpt lat="53.4470680" lon="-10.0289480">
    <ele>22.4</ele>
    <time>2025-12-26T16:17:21Z</time>
   </trkpt>
   <trkpt lat="53.4470540" lon="-10.0290540">
    <ele>22.5</ele>
    <time>2025-12-26T16:17:27Z</time>
   </trkpt>
   <trkpt lat="53.4470350" lon="-10.0291620">
    <ele>22.6</ele>
    <time>2025-12-26T16:17:32Z</time>
   </trkpt>
   <trkpt lat="53.4470210" lon="-10.0292650">
    <ele>22.8</ele>
    <time>2025-12-26T16:17:37Z</time>
   </trkpt>
   <trkpt lat="53.4470000" lon="-10.0293680">
    <ele>22.9</ele>
    <time>2025-12-26T16:17:43Z</time>
   </trkpt>
   <trkpt lat="53.4469880" lon="-10.0294640">
    <ele>23.0</ele>
    <time>2025-12-26T16:17:48Z</time>
   </trkpt>
   <trkpt lat="53.4469740" lon="-10.0295640">
    <ele>23.2</ele>
    <time>2025-12-26T16:17:53Z</time>
   </trkpt>
   <trkpt lat="53.4469460" lon="-10.0296490">
    <ele>23.2</ele>
    <time>2025-12-26T16:17:58Z</time>
   </trkpt>
   <trkpt lat="53.4469560" lon="-10.0297300">
    <ele>23.1</ele>
    <time>2025-12-26T16:18:03Z</time>
   </trkpt>
   <trkpt lat="53.4469870" lon="-10.0298040">
    <ele>23.1</ele>
    <time>2025-12-26T16:18:09Z</time>
   </trkpt>
   <trkpt lat="53.4470110" lon="-10.0297390">
    <ele>22.7</ele>
    <time>2025-12-26T16:20:05Z</time>
   </trkpt>
   <trkpt lat="53.4470560" lon="-10.0297120">
    <ele>23.4</ele>
    <time>2025-12-26T16:20:19Z</time>
   </trkpt>
   <trkpt lat="53.4470540" lon="-10.0298060">
    <ele>23.5</ele>
    <time>2025-12-26T16:20:37Z</time>
   </trkpt>
   <trkpt lat="53.4470480" lon="-10.0299610">
    <ele>23.6</ele>
    <time>2025-12-26T16:20:42Z</time>
   </trkpt>
   <trkpt lat="53.4470780" lon="-10.0300920">
    <ele>23.7</ele>
    <time>2025-12-26T16:20:47Z</time>
   </trkpt>
   <trkpt lat="53.4470890" lon="-10.0302200">
    <ele>23.7</ele>
    <time>2025-12-26T16:20:53Z</time>
   </trkpt>
   <trkpt lat="53.4471080" lon="-10.0303440">
    <ele>23.9</ele>
    <time>2025-12-26T16:20:58Z</time>
   </trkpt>
   <trkpt lat="53.4470910" lon="-10.0302620">
    <ele>24.3</ele>
    <time>2025-12-26T16:21:29Z</time>
   </trkpt>
   <trkpt lat="53.4470710" lon="-10.0301020">
    <ele>24.1</ele>
    <time>2025-12-26T16:21:35Z</time>
   </trkpt>
   <trkpt lat="53.4470050" lon="-10.0300240">
    <ele>24.0</ele>
    <time>2025-12-26T16:21:40Z</time>
   </trkpt>
   <trkpt lat="53.4469790" lon="-10.0300850">
    <ele>23.7</ele>
    <time>2025-12-26T16:21:46Z</time>
   </trkpt>
   <trkpt lat="53.4469670" lon="-10.0301640">
    <ele>23.0</ele>
    <time>2025-12-26T16:22:25Z</time>
   </trkpt>
   <trkpt lat="53.4469150" lon="-10.0303020">
    <ele>22.9</ele>
    <time>2025-12-26T16:22:30Z</time>
   </trkpt>
   <trkpt lat="53.4468520" lon="-10.0304110">
    <ele>22.9</ele>
    <time>2025-12-26T16:22:35Z</time>
   </trkpt>
   <trkpt lat="53.4468090" lon="-10.0305070">
    <ele>23.0</ele>
    <time>2025-12-26T16:22:40Z</time>
   </trkpt>
   <trkpt lat="53.4467720" lon="-10.0306290">
    <ele>23.2</ele>
    <time>2025-12-26T16:22:46Z</time>
   </trkpt>
   <trkpt lat="53.4467350" lon="-10.0307400">
    <ele>23.5</ele>
    <time>2025-12-26T16:22:51Z</time>
   </trkpt>
   <trkpt lat="53.4467190" lon="-10.0308560">
    <ele>23.6</ele>
    <time>2025-12-26T16:22:56Z</time>
   </trkpt>
   <trkpt lat="53.4466670" lon="-10.0309470">
    <ele>23.7</ele>
    <time>2025-12-26T16:23:02Z</time>
   </trkpt>
   <trkpt lat="53.4466060" lon="-10.0309280">
    <ele>23.8</ele>
    <time>2025-12-26T16:23:07Z</time>
   </trkpt>
   <trkpt lat="53.4466600" lon="-10.0309460">
    <ele>23.9</ele>
    <time>2025-12-26T16:23:26Z</time>
   </trkpt>
   <trkpt lat="53.4467320" lon="-10.0308470">
    <ele>24.0</ele>
    <time>2025-12-26T16:23:31Z</time>
   </trkpt>
   <trkpt lat="53.4467520" lon="-10.0307060">
    <ele>23.9</ele>
    <time>2025-12-26T16:23:37Z</time>
   </trkpt>
   <trkpt lat="53.4468120" lon="-10.0307530">
    <ele>23.9</ele>
    <time>2025-12-26T16:23:43Z</time>
   </trkpt>
   <trkpt lat="53.4468650" lon="-10.0308160">
    <ele>24.4</ele>
    <time>2025-12-26T16:23:48Z</time>
   </trkpt>
   <trkpt lat="53.4469210" lon="-10.0308460">
    <ele>25.0</ele>
    <time>2025-12-26T16:23:53Z</time>
   </trkpt>
   <trkpt lat="53.4469750" lon="-10.0308920">
    <ele>25.8</ele>
    <time>2025-12-26T16:23:59Z</time>
   </trkpt>
   <trkpt lat="53.4470330" lon="-10.0309230">
    <ele>26.6</ele>
    <time>2025-12-26T16:24:04Z</time>
   </trkpt>
   <trkpt lat="53.4470890" lon="-10.0308810">
    <ele>27.5</ele>
    <time>2025-12-26T16:24:09Z</time>
   </trkpt>
   <trkpt lat="53.4471340" lon="-10.0309260">
    <ele>28.9</ele>
    <time>2025-12-26T16:24:34Z</time>
   </trkpt>
   <trkpt lat="53.4471940" lon="-10.0310140">
    <ele>29.5</ele>
    <time>2025-12-26T16:24:39Z</time>
   </trkpt>
   <trkpt lat="53.4472390" lon="-10.0310950">
    <ele>30.1</ele>
    <time>2025-12-26T16:24:44Z</time>
   </trkpt>
   <trkpt lat="53.4472980" lon="-10.0311470">
    <ele>30.8</ele>
    <time>2025-12-26T16:24:50Z</time>
   </trkpt>
   <trkpt lat="53.4473610" lon="-10.0311250">
    <ele>31.5</ele>
    <time>2025-12-26T16:24:55Z</time>
   </trkpt>
   <trkpt lat="53.4473970" lon="-10.0310010">
    <ele>31.8</ele>
    <time>2025-12-26T16:25:00Z</time>
   </trkpt>
   <trkpt lat="53.4473950" lon="-10.0309030">
    <ele>31.8</ele>
    <time>2025-12-26T16:25:05Z</time>
   </trkpt>
   <trkpt lat="53.4473750" lon="-10.0308210">
    <ele>31.4</ele>
    <time>2025-12-26T16:25:21Z</time>
   </trkpt>
   <trkpt lat="53.4474140" lon="-10.0307610">
    <ele>31.4</ele>
    <time>2025-12-26T16:25:42Z</time>
   </trkpt>
   <trkpt lat="53.4474590" lon="-10.0308020">
    <ele>30.6</ele>
    <time>2025-12-26T16:25:54Z</time>
   </trkpt>
   <trkpt lat="53.4474930" lon="-10.0309340">
    <ele>30.5</ele>
    <time>2025-12-26T16:25:59Z</time>
   </trkpt>
   <trkpt lat="53.4475230" lon="-10.0310780">
    <ele>30.9</ele>
    <time>2025-12-26T16:26:04Z</time>
   </trkpt>
   <trkpt lat="53.4475760" lon="-10.0311900">
    <ele>30.9</ele>
    <time>2025-12-26T16:26:09Z</time>
   </trkpt>
   <trkpt lat="53.4476080" lon="-10.0313000">
    <ele>30.6</ele>
    <time>2025-12-26T16:26:15Z</time>
   </trkpt>
   <trkpt lat="53.4475960" lon="-10.0313780">
    <ele>30.4</ele>
    <time>2025-12-26T16:26:20Z</time>
   </trkpt>
   <trkpt lat="53.4475840" lon="-10.0313020">
    <ele>27.1</ele>
    <time>2025-12-26T16:27:27Z</time>
   </trkpt>
   <trkpt lat="53.4476160" lon="-10.0312470">
    <ele>29.1</ele>
    <time>2025-12-26T16:27:34Z</time>
   </trkpt>
   <trkpt lat="53.4475630" lon="-10.0310980">
    <ele>29.7</ele>
    <time>2025-12-26T16:27:40Z</time>
   </trkpt>
   <trkpt lat="53.4475110" lon="-10.0309670">
    <ele>30.0</ele>
    <time>2025-12-26T16:27:45Z</time>
   </trkpt>
   <trkpt lat="53.4474750" lon="-10.0308690">
    <ele>30.2</ele>
    <time>2025-12-26T16:27:50Z</time>
   </trkpt>
   <trkpt lat="53.4474370" lon="-10.0307820">
    <ele>30.7</ele>
    <time>2025-12-26T16:27:56Z</time>
   </trkpt>
   <trkpt lat="53.4474370" lon="-10.0306860">
    <ele>31.1</ele>
    <time>2025-12-26T16:28:01Z</time>
   </trkpt>
   <trkpt lat="53.4474400" lon="-10.0305570">
    <ele>31.0</ele>
    <time>2025-12-26T16:28:07Z</time>
   </trkpt>
   <trkpt lat="53.4474310" lon="-10.0304360">
    <ele>30.4</ele>
    <time>2025-12-26T16:28:12Z</time>
   </trkpt>
   <trkpt lat="53.4474160" lon="-10.0303160">
    <ele>29.8</ele>
    <time>2025-12-26T16:28:17Z</time>
   </trkpt>
   <trkpt lat="53.4473910" lon="-10.0301810">
    <ele>29.4</ele>
    <time>2025-12-26T16:28:23Z</time>
   </trkpt>
   <trkpt lat="53.4473640" lon="-10.0300490">
    <ele>29.1</ele>
    <time>2025-12-26T16:28:28Z</time>
   </trkpt>
   <trkpt lat="53.4473370" lon="-10.0299250">
    <ele>28.6</ele>
    <time>2025-12-26T16:28:34Z</time>
   </trkpt>
   <trkpt lat="53.4473140" lon="-10.0297980">
    <ele>28.2</ele>
    <time>2025-12-26T16:28:39Z</time>
   </trkpt>
   <trkpt lat="53.4473020" lon="-10.0296710">
    <ele>27.6</ele>
    <time>2025-12-26T16:28:44Z</time>
   </trkpt>
   <trkpt lat="53.4473000" lon="-10.0295490">
    <ele>27.0</ele>
    <time>2025-12-26T16:28:50Z</time>
   </trkpt>
   <trkpt lat="53.4472990" lon="-10.0294480">
    <ele>26.6</ele>
    <time>2025-12-26T16:28:55Z</time>
   </trkpt>
   <trkpt lat="53.4473160" lon="-10.0293420">
    <ele>26.3</ele>
    <time>2025-12-26T16:29:00Z</time>
   </trkpt>
   <trkpt lat="53.4473290" lon="-10.0292320">
    <ele>26.0</ele>
    <time>2025-12-26T16:29:05Z</time>
   </trkpt>
   <trkpt lat="53.4473570" lon="-10.0291310">
    <ele>25.8</ele>
    <time>2025-12-26T16:29:10Z</time>
   </trkpt>
   <trkpt lat="53.4473650" lon="-10.0290300">
    <ele>25.6</ele>
    <time>2025-12-26T16:29:16Z</time>
   </trkpt>
   <trkpt lat="53.4473740" lon="-10.0289370">
    <ele>25.4</ele>
    <time>2025-12-26T16:29:21Z</time>
   </trkpt>
   <trkpt lat="53.4473940" lon="-10.0288350">
    <ele>25.2</ele>
    <time>2025-12-26T16:29:26Z</time>
   </trkpt>
   <trkpt lat="53.4474420" lon="-10.0287960">
    <ele>25.0</ele>
    <time>2025-12-26T16:29:47Z</time>
   </trkpt>
   <trkpt lat="53.4475310" lon="-10.0287960">
    <ele>25.0</ele>
    <time>2025-12-26T16:29:52Z</time>
   </trkpt>
   <trkpt lat="53.4475780" lon="-10.0288470">
    <ele>25.1</ele>
    <time>2025-12-26T16:29:57Z</time>
   </trkpt>
   <trkpt lat="53.4475960" lon="-10.0289550">
    <ele>25.1</ele>
    <time>2025-12-26T16:30:03Z</time>
   </trkpt>
   <trkpt lat="53.4476560" lon="-10.0289540">
    <ele>25.0</ele>
    <time>2025-12-26T16:30:08Z</time>
   </trkpt>
   <trkpt lat="53.4477260" lon="-10.0289200">
    <ele>24.6</ele>
    <time>2025-12-26T16:30:14Z</time>
   </trkpt>
   <trkpt lat="53.4477800" lon="-10.0289100">
    <ele>24.3</ele>
    <time>2025-12-26T16:30:19Z</time>
   </trkpt>
   <trkpt lat="53.4478380" lon="-10.0289090">
    <ele>23.9</ele>
    <time>2025-12-26T16:30:24Z</time>
   </trkpt>
   <trkpt lat="53.4479110" lon="-10.0289070">
    <ele>23.2</ele>
    <time>2025-12-26T16:30:30Z</time>
   </trkpt>
   <trkpt lat="53.4479780" lon="-10.0289020">
    <ele>22.5</ele>
    <time>2025-12-26T16:30:35Z</time>
   </trkpt>
   <trkpt lat="53.4480320" lon="-10.0289020">
    <ele>21.6</ele>
    <time>2025-12-26T16:30:41Z</time>
   </trkpt>
   <trkpt lat="53.4480820" lon="-10.0288930">
    <ele>20.7</ele>
    <time>2025-12-26T16:30:46Z</time>
   </trkpt>
   <trkpt lat="53.4481430" lon="-10.0288940">
    <ele>20.0</ele>
    <time>2025-12-26T16:30:51Z</time>
   </trkpt>
   <trkpt lat="53.4481880" lon="-10.0288990">
    <ele>19.5</ele>
    <time>2025-12-26T16:30:57Z</time>
   </trkpt>
   <trkpt lat="53.4482450" lon="-10.0289010">
    <ele>19.0</ele>
    <time>2025-12-26T16:31:02Z</time>
   </trkpt>
   <trkpt lat="53.4483240" lon="-10.0288990">
    <ele>18.9</ele>
    <time>2025-12-26T16:31:08Z</time>
   </trkpt>
   <trkpt lat="53.4483950" lon="-10.0289050">
    <ele>18.9</ele>
    <time>2025-12-26T16:31:13Z</time>
   </trkpt>
   <trkpt lat="53.4484460" lon="-10.0289130">
    <ele>19.1</ele>
    <time>2025-12-26T16:31:19Z</time>
   </trkpt>
   <trkpt lat="53.4485020" lon="-10.0289100">
    <ele>19.2</ele>
    <time>2025-12-26T16:31:24Z</time>
   </trkpt>
   <trkpt lat="53.4485640" lon="-10.0289040">
    <ele>19.1</ele>
    <time>2025-12-26T16:31:29Z</time>
   </trkpt>
   <trkpt lat="53.4486140" lon="-10.0288980">
    <ele>19.0</ele>
    <time>2025-12-26T16:31:34Z</time>
   </trkpt>
   <trkpt lat="53.4486840" lon="-10.0288830">
    <ele>19.0</ele>
    <time>2025-12-26T16:31:39Z</time>
   </trkpt>
   <trkpt lat="53.4487320" lon="-10.0288700">
    <ele>19.2</ele>
    <time>2025-12-26T16:31:45Z</time>
   </trkpt>
   <trkpt lat="53.4487510" lon="-10.0287890">
    <ele>19.4</ele>
    <time>2025-12-26T16:32:01Z</time>
   </trkpt>
   <trkpt lat="53.4487900" lon="-10.0286520">
    <ele>19.5</ele>
    <time>2025-12-26T16:32:06Z</time>
   </trkpt>
   <trkpt lat="53.4488130" lon="-10.0285470">
    <ele>19.5</ele>
    <time>2025-12-26T16:32:12Z</time>
   </trkpt>
   <trkpt lat="53.4488440" lon="-10.0284790">
    <ele>19.9</ele>
    <time>2025-12-26T16:32:18Z</time>
   </trkpt>
   <trkpt lat="53.4488760" lon="-10.0284220">
    <ele>20.4</ele>
    <time>2025-12-26T16:32:24Z</time>
   </trkpt>
   <trkpt lat="53.4489120" lon="-10.0283520">
    <ele>19.9</ele>
    <time>2025-12-26T16:32:43Z</time>
   </trkpt>
   <trkpt lat="53.4489570" lon="-10.0282170">
    <ele>20.9</ele>
    <time>2025-12-26T16:32:48Z</time>
   </trkpt>
   <trkpt lat="53.4490270" lon="-10.0281350">
    <ele>21.6</ele>
    <time>2025-12-26T16:32:53Z</time>
   </trkpt>
   <trkpt lat="53.4490700" lon="-10.0280380">
    <ele>21.8</ele>
    <time>2025-12-26T16:32:59Z</time>
   </trkpt>
   <trkpt lat="53.4491280" lon="-10.0279500">
    <ele>21.9</ele>
    <time>2025-12-26T16:33:04Z</time>
   </trkpt>
   <trkpt lat="53.4491780" lon="-10.0278450">
    <ele>22.0</ele>
    <time>2025-12-26T16:33:10Z</time>
   </trkpt>
   <trkpt lat="53.4492160" lon="-10.0277470">
    <ele>22.1</ele>
    <time>2025-12-26T16:33:15Z</time>
   </trkpt>
   <trkpt lat="53.4492590" lon="-10.0276490">
    <ele>22.1</ele>
    <time>2025-12-26T16:33:20Z</time>
   </trkpt>
   <trkpt lat="53.4492930" lon="-10.0275720">
    <ele>22.0</ele>
    <time>2025-12-26T16:33:26Z</time>
   </trkpt>
   <trkpt lat="53.4493480" lon="-10.0274870">
    <ele>21.7</ele>
    <time>2025-12-26T16:33:31Z</time>
   </trkpt>
   <trkpt lat="53.4493920" lon="-10.0274220">
    <ele>21.5</ele>
    <time>2025-12-26T16:33:36Z</time>
   </trkpt>
   <trkpt lat="53.4494290" lon="-10.0273360">
    <ele>21.5</ele>
    <time>2025-12-26T16:33:42Z</time>
   </trkpt>
   <trkpt lat="53.4494740" lon="-10.0272470">
    <ele>21.5</ele>
    <time>2025-12-26T16:33:47Z</time>
   </trkpt>
   <trkpt lat="53.4495220" lon="-10.0271780">
    <ele>21.4</ele>
    <time>2025-12-26T16:33:52Z</time>
   </trkpt>
   <trkpt lat="53.4495780" lon="-10.0271000">
    <ele>21.4</ele>
    <time>2025-12-26T16:33:57Z</time>
   </trkpt>
   <trkpt lat="53.4496210" lon="-10.0270130">
    <ele>21.4</ele>
    <time>2025-12-26T16:34:03Z</time>
   </trkpt>
   <trkpt lat="53.4496670" lon="-10.0269300">
    <ele>21.4</ele>
    <time>2025-12-26T16:34:08Z</time>
   </trkpt>
   <trkpt lat="53.4497110" lon="-10.0268550">
    <ele>21.4</ele>
    <time>2025-12-26T16:34:13Z</time>
   </trkpt>
   <trkpt lat="53.4497570" lon="-10.0267900">
    <ele>21.4</ele>
    <time>2025-12-26T16:34:18Z</time>
   </trkpt>
   <trkpt lat="53.4498040" lon="-10.0267170">
    <ele>21.5</ele>
    <time>2025-12-26T16:34:24Z</time>
   </trkpt>
   <trkpt lat="53.4498330" lon="-10.0266350">
    <ele>21.7</ele>
    <time>2025-12-26T16:34:29Z</time>
   </trkpt>
   <trkpt lat="53.4498940" lon="-10.0265860">
    <ele>22.0</ele>
    <time>2025-12-26T16:34:34Z</time>
   </trkpt>
   <trkpt lat="53.4499450" lon="-10.0265030">
    <ele>22.2</ele>
    <time>2025-12-26T16:34:40Z</time>
   </trkpt>
   <trkpt lat="53.4499870" lon="-10.0264100">
    <ele>22.3</ele>
    <time>2025-12-26T16:34:45Z</time>
   </trkpt>
   <trkpt lat="53.4500200" lon="-10.0263220">
    <ele>22.1</ele>
    <time>2025-12-26T16:34:50Z</time>
   </trkpt>
   <trkpt lat="53.4500680" lon="-10.0262480">
    <ele>22.1</ele>
    <time>2025-12-26T16:34:56Z</time>
   </trkpt>
   <trkpt lat="53.4501150" lon="-10.0261780">
    <ele>22.1</ele>
    <time>2025-12-26T16:35:01Z</time>
   </trkpt>
   <trkpt lat="53.4501540" lon="-10.0260890">
    <ele>22.3</ele>
    <time>2025-12-26T16:35:07Z</time>
   </trkpt>
   <trkpt lat="53.4501980" lon="-10.0260600">
    <ele>21.6</ele>
    <time>2025-12-26T16:35:29Z</time>
   </trkpt>
   <trkpt lat="53.4502520" lon="-10.0259030">
    <ele>21.7</ele>
    <time>2025-12-26T16:35:35Z</time>
   </trkpt>
   <trkpt lat="53.4503070" lon="-10.0258190">
    <ele>21.7</ele>
    <time>2025-12-26T16:35:40Z</time>
   </trkpt>
   <trkpt lat="53.4503430" lon="-10.0257320">
    <ele>21.4</ele>
    <time>2025-12-26T16:35:45Z</time>
   </trkpt>
   <trkpt lat="53.4503850" lon="-10.0256880">
    <ele>21.4</ele>
    <time>2025-12-26T16:35:53Z</time>
   </trkpt>
   <trkpt lat="53.4504380" lon="-10.0255830">
    <ele>21.5</ele>
    <time>2025-12-26T16:35:58Z</time>
   </trkpt>
   <trkpt lat="53.4504870" lon="-10.0254860">
    <ele>21.5</ele>
    <time>2025-12-26T16:36:04Z</time>
   </trkpt>
   <trkpt lat="53.4505430" lon="-10.0253900">
    <ele>21.4</ele>
    <time>2025-12-26T16:36:09Z</time>
   </trkpt>
   <trkpt lat="53.4505960" lon="-10.0252860">
    <ele>21.2</ele>
    <time>2025-12-26T16:36:15Z</time>
   </trkpt>
   <trkpt lat="53.4506520" lon="-10.0252070">
    <ele>20.9</ele>
    <time>2025-12-26T16:36:20Z</time>
   </trkpt>
   <trkpt lat="53.4506930" lon="-10.0251290">
    <ele>20.9</ele>
    <time>2025-12-26T16:36:25Z</time>
   </trkpt>
   <trkpt lat="53.4507380" lon="-10.0250530">
    <ele>21.1</ele>
    <time>2025-12-26T16:36:31Z</time>
   </trkpt>
   <trkpt lat="53.4507730" lon="-10.0249820">
    <ele>21.4</ele>
    <time>2025-12-26T16:36:36Z</time>
   </trkpt>
   <trkpt lat="53.4508150" lon="-10.0249120">
    <ele>21.5</ele>
    <time>2025-12-26T16:36:41Z</time>
   </trkpt>
   <trkpt lat="53.4508250" lon="-10.0248190">
    <ele>21.3</ele>
    <time>2025-12-26T16:36:46Z</time>
   </trkpt>
   <trkpt lat="53.4508000" lon="-10.0247430">
    <ele>21.2</ele>
    <time>2025-12-26T16:36:52Z</time>
   </trkpt>
   <trkpt lat="53.4507680" lon="-10.0246390">
    <ele>21.3</ele>
    <time>2025-12-26T16:36:57Z</time>
   </trkpt>
   <trkpt lat="53.4507370" lon="-10.0245350">
    <ele>21.3</ele>
    <time>2025-12-26T16:37:03Z</time>
   </trkpt>
   <trkpt lat="53.4507150" lon="-10.0244480">
    <ele>21.4</ele>
    <time>2025-12-26T16:37:08Z</time>
   </trkpt>
   <trkpt lat="53.4506940" lon="-10.0243540">
    <ele>21.3</ele>
    <time>2025-12-26T16:37:13Z</time>
   </trkpt>
   <trkpt lat="53.4506980" lon="-10.0242750">
    <ele>21.1</ele>
    <time>2025-12-26T16:37:18Z</time>
   </trkpt>
   <trkpt lat="53.4507600" lon="-10.0243060">
    <ele>20.9</ele>
    <time>2025-12-26T16:37:23Z</time>
   </trkpt>
   <trkpt lat="53.4508370" lon="-10.0242990">
    <ele>20.9</ele>
    <time>2025-12-26T16:37:28Z</time>
   </trkpt>
   <trkpt lat="53.4508960" lon="-10.0242720">
    <ele>20.7</ele>
    <time>2025-12-26T16:37:34Z</time>
   </trkpt>
   <trkpt lat="53.4509470" lon="-10.0242720">
    <ele>20.5</ele>
    <time>2025-12-26T16:37:39Z</time>
   </trkpt>
   <trkpt lat="53.4509840" lon="-10.0242250">
    <ele>19.0</ele>
    <time>2025-12-26T16:38:19Z</time>
   </trkpt>
   <trkpt lat="53.4510920" lon="-10.0241840">
    <ele>19.6</ele>
    <time>2025-12-26T16:38:24Z</time>
   </trkpt>
   <trkpt lat="53.4511510" lon="-10.0241480">
    <ele>19.7</ele>
    <time>2025-12-26T16:38:29Z</time>
   </trkpt>
   <trkpt lat="53.4512070" lon="-10.0241230">
    <ele>19.4</ele>
    <time>2025-12-26T16:38:35Z</time>
   </trkpt>
   <trkpt lat="53.4512510" lon="-10.0240700">
    <ele>19.3</ele>
    <time>2025-12-26T16:38:40Z</time>
   </trkpt>
   <trkpt lat="53.4513150" lon="-10.0240090">
    <ele>19.4</ele>
    <time>2025-12-26T16:38:45Z</time>
   </trkpt>
   <trkpt lat="53.4513740" lon="-10.0239490">
    <ele>19.6</ele>
    <time>2025-12-26T16:38:50Z</time>
   </trkpt>
   <trkpt lat="53.4514300" lon="-10.0238700">
    <ele>19.9</ele>
    <time>2025-12-26T16:38:55Z</time>
   </trkpt>
   <trkpt lat="53.4514780" lon="-10.0237970">
    <ele>20.0</ele>
    <time>2025-12-26T16:39:01Z</time>
   </trkpt>
   <trkpt lat="53.4515170" lon="-10.0237140">
    <ele>19.9</ele>
    <time>2025-12-26T16:39:06Z</time>
   </trkpt>
   <trkpt lat="53.4515570" lon="-10.0236390">
    <ele>19.9</ele>
    <time>2025-12-26T16:39:11Z</time>
   </trkpt>
   <trkpt lat="53.4515890" lon="-10.0235570">
    <ele>19.9</ele>
    <time>2025-12-26T16:39:17Z</time>
   </trkpt>
   <trkpt lat="53.4516230" lon="-10.0234650">
    <ele>20.1</ele>
    <time>2025-12-26T16:39:22Z</time>
   </trkpt>
   <trkpt lat="53.4516530" lon="-10.0233710">
    <ele>20.3</ele>
    <time>2025-12-26T16:39:28Z</time>
   </trkpt>
   <trkpt lat="53.4516870" lon="-10.0232730">
    <ele>20.6</ele>
    <time>2025-12-26T16:39:33Z</time>
   </trkpt>
   <trkpt lat="53.4517200" lon="-10.0231760">
    <ele>20.8</ele>
    <time>2025-12-26T16:39:39Z</time>
   </trkpt>
   <trkpt lat="53.4517380" lon="-10.0230870">
    <ele>21.2</ele>
    <time>2025-12-26T16:39:44Z</time>
   </trkpt>
   <trkpt lat="53.4517720" lon="-10.0230040">
    <ele>21.5</ele>
    <time>2025-12-26T16:39:49Z</time>
   </trkpt>
   <trkpt lat="53.4518170" lon="-10.0229410">
    <ele>21.8</ele>
    <time>2025-12-26T16:39:55Z</time>
   </trkpt>
   <trkpt lat="53.4518650" lon="-10.0228830">
    <ele>22.1</ele>
    <time>2025-12-26T16:40:00Z</time>
   </trkpt>
   <trkpt lat="53.4519260" lon="-10.0228330">
    <ele>22.4</ele>
    <time>2025-12-26T16:40:06Z</time>
   </trkpt>
   <trkpt lat="53.4519820" lon="-10.0227750">
    <ele>22.5</ele>
    <time>2025-12-26T16:40:11Z</time>
   </trkpt>
   <trkpt lat="53.4520350" lon="-10.0227240">
    <ele>22.5</ele>
    <time>2025-12-26T16:40:16Z</time>
   </trkpt>
   <trkpt lat="53.4520810" lon="-10.0226840">
    <ele>22.5</ele>
    <time>2025-12-26T16:40:22Z</time>
   </trkpt>
   <trkpt lat="53.4521240" lon="-10.0226080">
    <ele>22.3</ele>
    <time>2025-12-26T16:40:27Z</time>
   </trkpt>
   <trkpt lat="53.4521910" lon="-10.0225490">
    <ele>22.0</ele>
    <time>2025-12-26T16:40:32Z</time>
   </trkpt>
   <trkpt lat="53.4522490" lon="-10.0225190">
    <ele>21.7</ele>
    <time>2025-12-26T16:40:37Z</time>
   </trkpt>
   <trkpt lat="53.4523040" lon="-10.0224630">
    <ele>21.6</ele>
    <time>2025-12-26T16:40:43Z</time>
   </trkpt>
   <trkpt lat="53.4523550" lon="-10.0224170">
    <ele>21.5</ele>
    <time>2025-12-26T16:40:48Z</time>
   </trkpt>
   <trkpt lat="53.4524140" lon="-10.0223690">
    <ele>21.5</ele>
    <time>2025-12-26T16:40:53Z</time>
   </trkpt>
   <trkpt lat="53.4524620" lon="-10.0223120">
    <ele>21.3</ele>
    <time>2025-12-26T16:40:59Z</time>
   </trkpt>
   <trkpt lat="53.4525180" lon="-10.0222470">
    <ele>21.1</ele>
    <time>2025-12-26T16:41:04Z</time>
   </trkpt>
   <trkpt lat="53.4525710" lon="-10.0222010">
    <ele>21.2</ele>
    <time>2025-12-26T16:41:09Z</time>
   </trkpt>
   <trkpt lat="53.4526220" lon="-10.0221390">
    <ele>21.2</ele>
    <time>2025-12-26T16:41:15Z</time>
   </trkpt>
   <trkpt lat="53.4526740" lon="-10.0220890">
    <ele>21.4</ele>
    <time>2025-12-26T16:41:20Z</time>
   </trkpt>
   <trkpt lat="53.4527270" lon="-10.0220300">
    <ele>21.4</ele>
    <time>2025-12-26T16:41:25Z</time>
   </trkpt>
   <trkpt lat="53.4527800" lon="-10.0219400">
    <ele>21.5</ele>
    <time>2025-12-26T16:41:31Z</time>
   </trkpt>
   <trkpt lat="53.4528370" lon="-10.0218670">
    <ele>21.7</ele>
    <time>2025-12-26T16:41:36Z</time>
   </trkpt>
   <trkpt lat="53.4528850" lon="-10.0218270">
    <ele>22.1</ele>
    <time>2025-12-26T16:41:41Z</time>
   </trkpt>
   <trkpt lat="53.4529360" lon="-10.0217640">
    <ele>22.2</ele>
    <time>2025-12-26T16:41:47Z</time>
   </trkpt>
   <trkpt lat="53.4529730" lon="-10.0216850">
    <ele>21.9</ele>
    <time>2025-12-26T16:41:52Z</time>
   </trkpt>
   <trkpt lat="53.4530170" lon="-10.0216230">
    <ele>22.1</ele>
    <time>2025-12-26T16:41:57Z</time>
   </trkpt>
   <trkpt lat="53.4530690" lon="-10.0215740">
    <ele>22.0</ele>
    <time>2025-12-26T16:42:02Z</time>
   </trkpt>
   <trkpt lat="53.4531040" lon="-10.0214940">
    <ele>21.8</ele>
    <time>2025-12-26T16:42:07Z</time>
   </trkpt>
   <trkpt lat="53.4531540" lon="-10.0214800">
    <ele>21.5</ele>
    <time>2025-12-26T16:42:13Z</time>
   </trkpt>
   <trkpt lat="53.4532140" lon="-10.0214000">
    <ele>21.6</ele>
    <time>2025-12-26T16:42:18Z</time>
   </trkpt>
   <trkpt lat="53.4532750" lon="-10.0213020">
    <ele>21.7</ele>
    <time>2025-12-26T16:42:24Z</time>
   </trkpt>
   <trkpt lat="53.4533200" lon="-10.0212130">
    <ele>21.5</ele>
    <time>2025-12-26T16:42:29Z</time>
   </trkpt>
   <trkpt lat="53.4533610" lon="-10.0211250">
    <ele>21.3</ele>
    <time>2025-12-26T16:42:34Z</time>
   </trkpt>
   <trkpt lat="53.4534040" lon="-10.0210490">
    <ele>21.2</ele>
    <time>2025-12-26T16:42:40Z</time>
   </trkpt>
   <trkpt lat="53.4534450" lon="-10.0209750">
    <ele>21.3</ele>
    <time>2025-12-26T16:42:45Z</time>
   </trkpt>
   <trkpt lat="53.4534900" lon="-10.0208980">
    <ele>21.4</ele>
    <time>2025-12-26T16:42:50Z</time>
   </trkpt>
   <trkpt lat="53.4535380" lon="-10.0208180">
    <ele>21.5</ele>
    <time>2025-12-26T16:42:56Z</time>
   </trkpt>
   <trkpt lat="53.4535900" lon="-10.0207410">
    <ele>21.5</ele>
    <time>2025-12-26T16:43:01Z</time>
   </trkpt>
   <trkpt lat="53.4536320" lon="-10.0206690">
    <ele>21.6</ele>
    <time>2025-12-26T16:43:06Z</time>
   </trkpt>
   <trkpt lat="53.4536760" lon="-10.0206030">
    <ele>21.7</ele>
    <time>2025-12-26T16:43:12Z</time>
   </trkpt>
   <trkpt lat="53.4537110" lon="-10.0204990">
    <ele>22.0</ele>
    <time>2025-12-26T16:43:17Z</time>
   </trkpt>
   <trkpt lat="53.4537510" lon="-10.0204240">
    <ele>22.0</ele>
    <time>2025-12-26T16:43:22Z</time>
   </trkpt>
   <trkpt lat="53.4538030" lon="-10.0203430">
    <ele>22.1</ele>
    <time>2025-12-26T16:43:28Z</time>
   </trkpt>
   <trkpt lat="53.4538380" lon="-10.0202620">
    <ele>22.2</ele>
    <time>2025-12-26T16:43:33Z</time>
   </trkpt>
   <trkpt lat="53.4538820" lon="-10.0201810">
    <ele>22.4</ele>
    <time>2025-12-26T16:43:38Z</time>
   </trkpt>
   <trkpt lat="53.4539130" lon="-10.0201120">
    <ele>22.5</ele>
    <time>2025-12-26T16:43:43Z</time>
   </trkpt>
   <trkpt lat="53.4539590" lon="-10.0200290">
    <ele>22.4</ele>
    <time>2025-12-26T16:43:49Z</time>
   </trkpt>
   <trkpt lat="53.4540000" lon="-10.0199450">
    <ele>22.2</ele>
    <time>2025-12-26T16:43:54Z</time>
   </trkpt>
   <trkpt lat="53.4540480" lon="-10.0198750">
    <ele>22.1</ele>
    <time>2025-12-26T16:44:00Z</time>
   </trkpt>
   <trkpt lat="53.4541050" lon="-10.0198140">
    <ele>22.0</ele>
    <time>2025-12-26T16:44:05Z</time>
   </trkpt>
   <trkpt lat="53.4541470" lon="-10.0197500">
    <ele>22.0</ele>
    <time>2025-12-26T16:44:10Z</time>
   </trkpt>
   <trkpt lat="53.4541930" lon="-10.0196940">
    <ele>21.9</ele>
    <time>2025-12-26T16:44:16Z</time>
   </trkpt>
   <trkpt lat="53.4542550" lon="-10.0196580">
    <ele>21.7</ele>
    <time>2025-12-26T16:44:21Z</time>
   </trkpt>
   <trkpt lat="53.4543100" lon="-10.0196550">
    <ele>21.5</ele>
    <time>2025-12-26T16:44:26Z</time>
   </trkpt>
   <trkpt lat="53.4543670" lon="-10.0196660">
    <ele>21.4</ele>
    <time>2025-12-26T16:44:32Z</time>
   </trkpt>
   <trkpt lat="53.4544350" lon="-10.0197130">
    <ele>21.4</ele>
    <time>2025-12-26T16:44:37Z</time>
   </trkpt>
   <trkpt lat="53.4544850" lon="-10.0197510">
    <ele>21.1</ele>
    <time>2025-12-26T16:44:42Z</time>
   </trkpt>
   <trkpt lat="53.4545400" lon="-10.0197940">
    <ele>20.8</ele>
    <time>2025-12-26T16:44:47Z</time>
   </trkpt>
   <trkpt lat="53.4545990" lon="-10.0198350">
    <ele>20.5</ele>
    <time>2025-12-26T16:44:53Z</time>
   </trkpt>
   <trkpt lat="53.4546570" lon="-10.0198930">
    <ele>20.0</ele>
    <time>2025-12-26T16:44:58Z</time>
   </trkpt>
   <trkpt lat="53.4547090" lon="-10.0199290">
    <ele>19.8</ele>
    <time>2025-12-26T16:45:03Z</time>
   </trkpt>
   <trkpt lat="53.4547600" lon="-10.0199560">
    <ele>19.4</ele>
    <time>2025-12-26T16:45:08Z</time>
   </trkpt>
   <trkpt lat="53.4548310" lon="-10.0200010">
    <ele>19.2</ele>
    <time>2025-12-26T16:45:14Z</time>
   </trkpt>
   <trkpt lat="53.4548970" lon="-10.0200360">
    <ele>18.9</ele>
    <time>2025-12-26T16:45:19Z</time>
   </trkpt>
   <trkpt lat="53.4549510" lon="-10.0200740">
    <ele>18.9</ele>
    <time>2025-12-26T16:45:25Z</time>
   </trkpt>
   <trkpt lat="53.4550130" lon="-10.0201170">
    <ele>18.9</ele>
    <time>2025-12-26T16:45:30Z</time>
   </trkpt>
   <trkpt lat="53.4550710" lon="-10.0201630">
    <ele>18.9</ele>
    <time>2025-12-26T16:45:36Z</time>
   </trkpt>
   <trkpt lat="53.4551240" lon="-10.0201950">
    <ele>18.9</ele>
    <time>2025-12-26T16:45:41Z</time>
   </trkpt>
   <trkpt lat="53.4551770" lon="-10.0202220">
    <ele>18.9</ele>
    <time>2025-12-26T16:45:46Z</time>
   </trkpt>
   <trkpt lat="53.4552460" lon="-10.0202780">
    <ele>19.1</ele>
    <time>2025-12-26T16:45:52Z</time>
   </trkpt>
   <trkpt lat="53.4553150" lon="-10.0203140">
    <ele>19.2</ele>
    <time>2025-12-26T16:45:57Z</time>
   </trkpt>
   <trkpt lat="53.4553800" lon="-10.0203490">
    <ele>19.4</ele>
    <time>2025-12-26T16:46:03Z</time>
   </trkpt>
   <trkpt lat="53.4554260" lon="-10.0203940">
    <ele>19.4</ele>
    <time>2025-12-26T16:46:08Z</time>
   </trkpt>
   <trkpt lat="53.4554810" lon="-10.0204160">
    <ele>19.0</ele>
    <time>2025-12-26T16:46:13Z</time>
   </trkpt>
   <trkpt lat="53.4555330" lon="-10.0204520">
    <ele>18.6</ele>
    <time>2025-12-26T16:46:19Z</time>
   </trkpt>
   <trkpt lat="53.4556010" lon="-10.0205000">
    <ele>18.4</ele>
    <time>2025-12-26T16:46:24Z</time>
   </trkpt>
   <trkpt lat="53.4556600" lon="-10.0205280">
    <ele>18.2</ele>
    <time>2025-12-26T16:46:29Z</time>
   </trkpt>
   <trkpt lat="53.4557140" lon="-10.0205710">
    <ele>18.0</ele>
    <time>2025-12-26T16:46:34Z</time>
   </trkpt>
   <trkpt lat="53.4557800" lon="-10.0205970">
    <ele>18.1</ele>
    <time>2025-12-26T16:46:40Z</time>
   </trkpt>
   <trkpt lat="53.4558400" lon="-10.0206420">
    <ele>18.1</ele>
    <time>2025-12-26T16:46:45Z</time>
   </trkpt>
   <trkpt lat="53.4558990" lon="-10.0206890">
    <ele>18.3</ele>
    <time>2025-12-26T16:46:51Z</time>
   </trkpt>
   <trkpt lat="53.4559480" lon="-10.0207030">
    <ele>18.5</ele>
    <time>2025-12-26T16:47:00Z</time>
   </trkpt>
   <trkpt lat="53.4560270" lon="-10.0207440">
    <ele>18.6</ele>
    <time>2025-12-26T16:47:05Z</time>
   </trkpt>
   <trkpt lat="53.4560890" lon="-10.0207980">
    <ele>18.7</ele>
    <time>2025-12-26T16:47:11Z</time>
   </trkpt>
   <trkpt lat="53.4561440" lon="-10.0208360">
    <ele>18.7</ele>
    <time>2025-12-26T16:47:16Z</time>
   </trkpt>
   <trkpt lat="53.4562000" lon="-10.0208600">
    <ele>18.8</ele>
    <time>2025-12-26T16:47:21Z</time>
   </trkpt>
   <trkpt lat="53.4562700" lon="-10.0208950">
    <ele>19.0</ele>
    <time>2025-12-26T16:47:27Z</time>
   </trkpt>
   <trkpt lat="53.4563210" lon="-10.0209150">
    <ele>19.0</ele>
    <time>2025-12-26T16:47:32Z</time>
   </trkpt>
   <trkpt lat="53.4563720" lon="-10.0209310">
    <ele>18.8</ele>
    <time>2025-12-26T16:47:38Z</time>
   </trkpt>
   <trkpt lat="53.4564340" lon="-10.0209520">
    <ele>18.7</ele>
    <time>2025-12-26T16:47:43Z</time>
   </trkpt>
   <trkpt lat="53.4564970" lon="-10.0209660">
    <ele>18.8</ele>
    <time>2025-12-26T16:47:48Z</time>
   </trkpt>
   <trkpt lat="53.4565620" lon="-10.0209760">
    <ele>18.8</ele>
    <time>2025-12-26T16:47:53Z</time>
   </trkpt>
   <trkpt lat="53.4566260" lon="-10.0209760">
    <ele>19.0</ele>
    <time>2025-12-26T16:47:59Z</time>
   </trkpt>
   <trkpt lat="53.4566810" lon="-10.0209790">
    <ele>18.8</ele>
    <time>2025-12-26T16:48:04Z</time>
   </trkpt>
   <trkpt lat="53.4567530" lon="-10.0209640">
    <ele>18.3</ele>
    <time>2025-12-26T16:48:09Z</time>
   </trkpt>
   <trkpt lat="53.4568100" lon="-10.0209520">
    <ele>17.9</ele>
    <time>2025-12-26T16:48:15Z</time>
   </trkpt>
   <trkpt lat="53.4568590" lon="-10.0209350">
    <ele>17.6</ele>
    <time>2025-12-26T16:48:20Z</time>
   </trkpt>
   <trkpt lat="53.4569170" lon="-10.0209140">
    <ele>17.7</ele>
    <time>2025-12-26T16:48:25Z</time>
   </trkpt>
   <trkpt lat="53.4569710" lon="-10.0208900">
    <ele>17.6</ele>
    <time>2025-12-26T16:48:31Z</time>
   </trkpt>
   <trkpt lat="53.4570420" lon="-10.0208770">
    <ele>17.5</ele>
    <time>2025-12-26T16:48:36Z</time>
   </trkpt>
   <trkpt lat="53.4570990" lon="-10.0208610">
    <ele>17.3</ele>
    <time>2025-12-26T16:48:41Z</time>
   </trkpt>
   <trkpt lat="53.4571590" lon="-10.0208670">
    <ele>17.1</ele>
    <time>2025-12-26T16:48:47Z</time>
   </trkpt>
   <trkpt lat="53.4572230" lon="-10.0208390">
    <ele>16.9</ele>
    <time>2025-12-26T16:48:52Z</time>
   </trkpt>
   <trkpt lat="53.4572880" lon="-10.0208190">
    <ele>16.8</ele>
    <time>2025-12-26T16:48:57Z</time>
   </trkpt>
   <trkpt lat="53.4573560" lon="-10.0208100">
    <ele>16.6</ele>
    <time>2025-12-26T16:49:03Z</time>
   </trkpt>
   <trkpt lat="53.4574040" lon="-10.0207870">
    <ele>15.9</ele>
    <time>2025-12-26T16:49:34Z</time>
   </trkpt>
   <trkpt lat="53.4574710" lon="-10.0207710">
    <ele>15.9</ele>
    <time>2025-12-26T16:49:39Z</time>
   </trkpt>
   <trkpt lat="53.4575330" lon="-10.0207470">
    <ele>15.9</ele>
    <time>2025-12-26T16:49:45Z</time>
   </trkpt>
   <trkpt lat="53.4575920" lon="-10.0207370">
    <ele>15.6</ele>
    <time>2025-12-26T16:49:50Z</time>
   </trkpt>
   <trkpt lat="53.4576570" lon="-10.0207410">
    <ele>15.1</ele>
    <time>2025-12-26T16:49:56Z</time>
   </trkpt>
   <trkpt lat="53.4577200" lon="-10.0207350">
    <ele>14.7</ele>
    <time>2025-12-26T16:50:01Z</time>
   </trkpt>
   <trkpt lat="53.4577730" lon="-10.0207200">
    <ele>14.0</ele>
    <time>2025-12-26T16:50:06Z</time>
   </trkpt>
   <trkpt lat="53.4578280" lon="-10.0207110">
    <ele>13.7</ele>
    <time>2025-12-26T16:50:12Z</time>
   </trkpt>
   <trkpt lat="53.4578770" lon="-10.0207160">
    <ele>13.1</ele>
    <time>2025-12-26T16:50:39Z</time>
   </trkpt>
   <trkpt lat="53.4579650" lon="-10.0207120">
    <ele>13.3</ele>
    <time>2025-12-26T16:50:44Z</time>
   </trkpt>
   <trkpt lat="53.4580320" lon="-10.0207150">
    <ele>13.4</ele>
    <time>2025-12-26T16:50:50Z</time>
   </trkpt>
   <trkpt lat="53.4580960" lon="-10.0206960">
    <ele>13.4</ele>
    <time>2025-12-26T16:50:55Z</time>
   </trkpt>
   <trkpt lat="53.4581560" lon="-10.0206850">
    <ele>13.3</ele>
    <time>2025-12-26T16:51:00Z</time>
   </trkpt>
   <trkpt lat="53.4582280" lon="-10.0206960">
    <ele>13.1</ele>
    <time>2025-12-26T16:51:05Z</time>
   </trkpt>
   <trkpt lat="53.4582940" lon="-10.0206870">
    <ele>12.9</ele>
    <time>2025-12-26T16:51:11Z</time>
   </trkpt>
   <trkpt lat="53.4583410" lon="-10.0207140">
    <ele>12.2</ele>
    <time>2025-12-26T16:51:36Z</time>
   </trkpt>
   <trkpt lat="53.4584150" lon="-10.0207520">
    <ele>12.0</ele>
    <time>2025-12-26T16:51:42Z</time>
   </trkpt>
   <trkpt lat="53.4584720" lon="-10.0207630">
    <ele>11.8</ele>
    <time>2025-12-26T16:51:47Z</time>
   </trkpt>
   <trkpt lat="53.4585380" lon="-10.0207670">
    <ele>11.6</ele>
    <time>2025-12-26T16:51:52Z</time>
   </trkpt>
   <trkpt lat="53.4585930" lon="-10.0207700">
    <ele>11.5</ele>
    <time>2025-12-26T16:51:58Z</time>
   </trkpt>
   <trkpt lat="53.4586460" lon="-10.0207860">
    <ele>11.3</ele>
    <time>2025-12-26T16:52:03Z</time>
   </trkpt>
   <trkpt lat="53.4587080" lon="-10.0208160">
    <ele>11.1</ele>
    <time>2025-12-26T16:52:08Z</time>
   </trkpt>
   <trkpt lat="53.4587580" lon="-10.0208210">
    <ele>10.8</ele>
    <time>2025-12-26T16:52:23Z</time>
   </trkpt>
   <trkpt lat="53.4588530" lon="-10.0208540">
    <ele>10.7</ele>
    <time>2025-12-26T16:52:28Z</time>
   </trkpt>
   <trkpt lat="53.4589130" lon="-10.0208770">
    <ele>10.5</ele>
    <time>2025-12-26T16:52:33Z</time>
   </trkpt>
   <trkpt lat="53.4589700" lon="-10.0209090">
    <ele>10.3</ele>
    <time>2025-12-26T16:52:38Z</time>
   </trkpt>
   <trkpt lat="53.4590360" lon="-10.0209540">
    <ele>9.9</ele>
    <time>2025-12-26T16:52:43Z</time>
   </trkpt>
   <trkpt lat="53.4590960" lon="-10.0209810">
    <ele>9.7</ele>
    <time>2025-12-26T16:52:49Z</time>
   </trkpt>
   <trkpt lat="53.4591540" lon="-10.0210280">
    <ele>9.4</ele>
    <time>2025-12-26T16:52:54Z</time>
   </trkpt>
   <trkpt lat="53.4592100" lon="-10.0210690">
    <ele>9.2</ele>
    <time>2025-12-26T16:52:59Z</time>
   </trkpt>
   <trkpt lat="53.4592730" lon="-10.0211070">
    <ele>9.3</ele>
    <time>2025-12-26T16:53:04Z</time>
   </trkpt>
   <trkpt lat="53.4593240" lon="-10.0211490">
    <ele>9.4</ele>
    <time>2025-12-26T16:53:10Z</time>
   </trkpt>
   <trkpt lat="53.4593890" lon="-10.0211790">
    <ele>9.8</ele>
    <time>2025-12-26T16:53:15Z</time>
   </trkpt>
   <trkpt lat="53.4594510" lon="-10.0212070">
    <ele>10.0</ele>
    <time>2025-12-26T16:53:21Z</time>
   </trkpt>
   <trkpt lat="53.4595090" lon="-10.0212770">
    <ele>9.9</ele>
    <time>2025-12-26T16:53:26Z</time>
   </trkpt>
   <trkpt lat="53.4595630" lon="-10.0213270">
    <ele>9.6</ele>
    <time>2025-12-26T16:53:31Z</time>
   </trkpt>
   <trkpt lat="53.4596240" lon="-10.0213570">
    <ele>9.4</ele>
    <time>2025-12-26T16:53:36Z</time>
   </trkpt>
   <trkpt lat="53.4596880" lon="-10.0214170">
    <ele>9.2</ele>
    <time>2025-12-26T16:53:42Z</time>
   </trkpt>
   <trkpt lat="53.4597470" lon="-10.0214560">
    <ele>8.8</ele>
    <time>2025-12-26T16:53:47Z</time>
   </trkpt>
   <trkpt lat="53.4598050" lon="-10.0215140">
    <ele>8.2</ele>
    <time>2025-12-26T16:53:52Z</time>
   </trkpt>
   <trkpt lat="53.4598640" lon="-10.0215440">
    <ele>7.9</ele>
    <time>2025-12-26T16:53:57Z</time>
   </trkpt>
   <trkpt lat="53.4599280" lon="-10.0215800">
    <ele>7.7</ele>
    <time>2025-12-26T16:54:03Z</time>
   </trkpt>
   <trkpt lat="53.4599810" lon="-10.0216350">
    <ele>7.4</ele>
    <time>2025-12-26T16:54:08Z</time>
   </trkpt>
   <trkpt lat="53.4600450" lon="-10.0216870">
    <ele>7.4</ele>
    <time>2025-12-26T16:54:13Z</time>
   </trkpt>
   <trkpt lat="53.4601010" lon="-10.0217370">
    <ele>7.3</ele>
    <time>2025-12-26T16:54:18Z</time>
   </trkpt>
   <trkpt lat="53.4601600" lon="-10.0217760">
    <ele>7.2</ele>
    <time>2025-12-26T16:54:23Z</time>
   </trkpt>
   <trkpt lat="53.4602210" lon="-10.0218320">
    <ele>7.2</ele>
    <time>2025-12-26T16:54:29Z</time>
   </trkpt>
   <trkpt lat="53.4602940" lon="-10.0218760">
    <ele>7.1</ele>
    <time>2025-12-26T16:54:34Z</time>
   </trkpt>
   <trkpt lat="53.4603480" lon="-10.0219260">
    <ele>7.1</ele>
    <time>2025-12-26T16:54:39Z</time>
   </trkpt>
   <trkpt lat="53.4604140" lon="-10.0219720">
    <ele>7.2</ele>
    <time>2025-12-26T16:54:44Z</time>
   </trkpt>
   <trkpt lat="53.4604710" lon="-10.0220140">
    <ele>7.1</ele>
    <time>2025-12-26T16:54:50Z</time>
   </trkpt>
   <trkpt lat="53.4605280" lon="-10.0220620">
    <ele>7.2</ele>
    <time>2025-12-26T16:54:55Z</time>
   </trkpt>
   <trkpt lat="53.4605930" lon="-10.0221140">
    <ele>7.1</ele>
    <time>2025-12-26T16:55:00Z</time>
   </trkpt>
   <trkpt lat="53.4606350" lon="-10.0221520">
    <ele>7.0</ele>
    <time>2025-12-26T16:55:06Z</time>
   </trkpt>
   <trkpt lat="53.4606750" lon="-10.0221910">
    <ele>7.0</ele>
    <time>2025-12-26T16:55:12Z</time>
   </trkpt>
   <trkpt lat="53.4607320" lon="-10.0222560">
    <ele>7.0</ele>
    <time>2025-12-26T16:55:17Z</time>
   </trkpt>
   <trkpt lat="53.4607400" lon="-10.0223470">
    <ele>7.2</ele>
    <time>2025-12-26T16:55:23Z</time>
   </trkpt>
   <trkpt lat="53.4607380" lon="-10.0224430">
    <ele>7.0</ele>
    <time>2025-12-26T16:55:28Z</time>
   </trkpt>
   <trkpt lat="53.4607360" lon="-10.0225250">
    <ele>6.9</ele>
    <time>2025-12-26T16:55:33Z</time>
   </trkpt>
   <trkpt lat="53.4607290" lon="-10.0226130">
    <ele>7.0</ele>
    <time>2025-12-26T16:55:38Z</time>
   </trkpt>
   <trkpt lat="53.4607240" lon="-10.0227130">
    <ele>6.9</ele>
    <time>2025-12-26T16:55:43Z</time>
   </trkpt>
   <trkpt lat="53.4607210" lon="-10.0228200">
    <ele>6.8</ele>
    <time>2025-12-26T16:55:49Z</time>
   </trkpt>
   <trkpt lat="53.4607120" lon="-10.0228960">
    <ele>6.7</ele>
    <time>2025-12-26T16:55:54Z</time>
   </trkpt>
   <trkpt lat="53.4607160" lon="-10.0229800">
    <ele>6.6</ele>
    <time>2025-12-26T16:56:12Z</time>
   </trkpt>
   <trkpt lat="53.4607240" lon="-10.0230870">
    <ele>6.5</ele>
    <time>2025-12-26T16:56:17Z</time>
   </trkpt>
   <trkpt lat="53.4607940" lon="-10.0230820">
    <ele>6.6</ele>
    <time>2025-12-26T16:56:23Z</time>
   </trkpt>
   <trkpt lat="53.4608650" lon="-10.0230790">
    <ele>6.2</ele>
    <time>2025-12-26T16:56:28Z</time>
   </trkpt>
   <trkpt lat="53.4609300" lon="-10.0230790">
    <ele>6.1</ele>
    <time>2025-12-26T16:56:33Z</time>
   </trkpt>
   <trkpt lat="53.4609880" lon="-10.0230910">
    <ele>6.0</ele>
    <time>2025-12-26T16:56:39Z</time>
   </trkpt>
   <trkpt lat="53.4610410" lon="-10.0230890">
    <ele>5.9</ele>
    <time>2025-12-26T16:56:44Z</time>
   </trkpt>
   <trkpt lat="53.4611110" lon="-10.0230890">
    <ele>5.9</ele>
    <time>2025-12-26T16:56:50Z</time>
   </trkpt>
   <trkpt lat="53.4611720" lon="-10.0230790">
    <ele>5.7</ele>
    <time>2025-12-26T16:56:55Z</time>
   </trkpt>
   <trkpt lat="53.4611710" lon="-10.0229890">
    <ele>4.1</ele>
    <time>2025-12-26T16:57:01Z</time>
   </trkpt>
   <trkpt lat="53.4612070" lon="-10.0229110">
    <ele>3.7</ele>
    <time>2025-12-26T16:57:07Z</time>
   </trkpt>
   <trkpt lat="53.4612150" lon="-10.0228320">
    <ele>3.0</ele>
    <time>2025-12-26T16:57:13Z</time>
   </trkpt>
  </trkseg>
 </trk>
</gpx>
